<?xml version="1.0" encoding="UTF-8"?>
<gpx xmlns="http://www.topografix.com/GPX/1/1" xmlns:gpsies="https://www.gpsies.com/GPX/1/0" creator="GPSies https://www.gpsies.com - &amp;#1044;&amp;#1077;&amp;#1088;&amp;#1077;&amp;#1093; &amp;#1052;&amp;#1080;&amp;#1096;&amp;#1083;&amp;#1072;&amp;#1090;&amp;#1080;&amp;#1084; - &amp;#1050;&amp;#1080;&amp;#1089;&amp;#1072;&amp;#1083;&amp;#1086;&amp;#1085; &amp;#1087;&amp;#1086;-&amp;#1085;&amp;#1086;&amp;#1074;&amp;#1086;&amp;#1084;&amp;#1091;" version="1.1" xmlns:xsi="http://www.w3.org/2001/XMLSchema-instance" xsi:schemaLocation="http://www.topografix.com/GPX/1/1 http://www.topografix.com/GPX/1/1/gpx.xsd https://www.gpsies.com/GPX/1/0 https://www.gpsies.com/gpsies.xsd">
  <metadata>
    <name>Дерех Мишлатим - Кисалон по-новому</name>
    <author>
      <name>igorsk</name>
      <link href="https://www.gpsies.com/mapUser.do?username=igorsk">
        <text>igorsk on GPSies.com</text>
        <type>GPSiesUserOnWeb</type>
      </link>
    </author>
    <link href="https://www.gpsies.com/map.do?fileId=ogwqbxulmfgdqczt">
      <text>Дерех Мишлатим - Кисалон по-новому on GPSies.com</text>
      <type>trackOnWeb</type>
    </link>
    <time>2018-08-26T16:30:14Z</time>
    <extensions>
      <gpsies:property>round trip</gpsies:property>
      <gpsies:trackLengthMeter>25426.13925871113</gpsies:trackLengthMeter>
      <gpsies:totalAscentMeter>551.0</gpsies:totalAscentMeter>
      <gpsies:totalDescentMeter>550.0</gpsies:totalDescentMeter>
      <gpsies:minHeightMeter>268.0</gpsies:minHeightMeter>
      <gpsies:maxHeightMeter>669.0</gpsies:maxHeightMeter>
    </extensions>
  </metadata>
  <trk>
    <name>Дерех Мишлатим - Кисалон по-новому on GPSies.com</name>
    <link href="https://www.gpsies.com/map.do?fileId=ogwqbxulmfgdqczt">
      <type>trackOnWeb</type>
    </link>
    <link href="https://www.gpsies.com/charts/og/map/ogwqbxulmfgdqczt_map.png">
      <type>elevationChartUrlMap</type>
    </link>
    <link href="https://www.gpsies.com/charts/og/mapThumb/ogwqbxulmfgdqczt_mapThumb.png">
      <type>elevationChartUrlMapThumb</type>
    </link>
    <link href="https://www.gpsies.com/charts/og/tab/ogwqbxulmfgdqczt_tab.png">
      <type>elevationChartUrlTab</type>
    </link>
    <trkseg>
      <trkpt lat="31.80961000" lon="35.02025000">
        <ele>313.00000</ele>
        <time>2010-01-01T00:00:00Z</time>
      </trkpt>
      <trkpt lat="31.80955000" lon="35.02013000">
        <ele>313.00000</ele>
        <time>2010-01-01T00:00:04Z</time>
      </trkpt>
      <trkpt lat="31.80951000" lon="35.02001000">
        <ele>312.00000</ele>
        <time>2010-01-01T00:00:09Z</time>
      </trkpt>
      <trkpt lat="31.80957000" lon="35.01974000">
        <ele>310.00000</ele>
        <time>2010-01-01T00:00:18Z</time>
      </trkpt>
      <trkpt lat="31.80965000" lon="35.01942000">
        <ele>309.00000</ele>
        <time>2010-01-01T00:00:29Z</time>
      </trkpt>
      <trkpt lat="31.80969000" lon="35.01922000">
        <ele>307.00000</ele>
        <time>2010-01-01T00:00:36Z</time>
      </trkpt>
      <trkpt lat="31.80969000" lon="35.01890000">
        <ele>304.00000</ele>
        <time>2010-01-01T00:00:47Z</time>
      </trkpt>
      <trkpt lat="31.80980000" lon="35.01886000">
        <ele>304.00000</ele>
        <time>2010-01-01T00:00:52Z</time>
      </trkpt>
      <trkpt lat="31.81015000" lon="35.01910000">
        <ele>307.00000</ele>
        <time>2010-01-01T00:01:08Z</time>
      </trkpt>
      <trkpt lat="31.81049000" lon="35.01938000">
        <ele>309.00000</ele>
        <time>2010-01-01T00:01:25Z</time>
      </trkpt>
      <trkpt lat="31.81083000" lon="35.01966000">
        <ele>310.00000</ele>
        <time>2010-01-01T00:01:41Z</time>
      </trkpt>
      <trkpt lat="31.81113000" lon="35.01994000">
        <ele>310.00000</ele>
        <time>2010-01-01T00:01:57Z</time>
      </trkpt>
      <trkpt lat="31.81145000" lon="35.02021000">
        <ele>312.00000</ele>
        <time>2010-01-01T00:02:12Z</time>
      </trkpt>
      <trkpt lat="31.81172000" lon="35.02043000">
        <ele>316.00000</ele>
        <time>2010-01-01T00:02:26Z</time>
      </trkpt>
      <trkpt lat="31.81186000" lon="35.02050000">
        <ele>317.00000</ele>
        <time>2010-01-01T00:02:32Z</time>
      </trkpt>
      <trkpt lat="31.81189000" lon="35.02047000">
        <ele>317.00000</ele>
        <time>2010-01-01T00:02:33Z</time>
      </trkpt>
      <trkpt lat="31.81189000" lon="35.02004000">
        <ele>319.00000</ele>
        <time>2010-01-01T00:02:48Z</time>
      </trkpt>
      <trkpt lat="31.81193000" lon="35.01968000">
        <ele>320.00000</ele>
        <time>2010-01-01T00:03:00Z</time>
      </trkpt>
      <trkpt lat="31.81203000" lon="35.01929000">
        <ele>323.00000</ele>
        <time>2010-01-01T00:03:14Z</time>
      </trkpt>
      <trkpt lat="31.81211960" lon="35.01887790">
        <ele>323.00000</ele>
        <time>2010-01-01T00:03:29Z</time>
      </trkpt>
      <trkpt lat="31.81231100" lon="35.01864190">
        <ele>325.00000</ele>
        <time>2010-01-01T00:03:40Z</time>
      </trkpt>
      <trkpt lat="31.81265750" lon="35.01907110">
        <ele>328.00000</ele>
        <time>2010-01-01T00:04:00Z</time>
      </trkpt>
      <trkpt lat="31.81362390" lon="35.01954310">
        <ele>330.00000</ele>
        <time>2010-01-01T00:04:42Z</time>
      </trkpt>
      <trkpt lat="31.81397940" lon="35.01973620">
        <ele>328.00000</ele>
        <time>2010-01-01T00:04:57Z</time>
      </trkpt>
      <trkpt lat="31.81480910" lon="35.01945730">
        <ele>328.00000</ele>
        <time>2010-01-01T00:05:32Z</time>
      </trkpt>
      <trkpt lat="31.81559310" lon="35.01929640">
        <ele>323.00000</ele>
        <time>2010-01-01T00:06:04Z</time>
      </trkpt>
      <trkpt lat="31.81685130" lon="35.01899600">
        <ele>307.00000</ele>
        <time>2010-01-01T00:06:55Z</time>
      </trkpt>
      <trkpt lat="31.81789060" lon="35.01834150">
        <ele>303.00000</ele>
        <time>2010-01-01T00:07:42Z</time>
      </trkpt>
      <trkpt lat="31.81841020" lon="35.01818060">
        <ele>296.00000</ele>
        <time>2010-01-01T00:08:04Z</time>
      </trkpt>
      <trkpt lat="31.81890250" lon="35.01815910">
        <ele>291.00000</ele>
        <time>2010-01-01T00:08:24Z</time>
      </trkpt>
      <trkpt lat="31.81910300" lon="35.01803040">
        <ele>290.00000</ele>
        <time>2010-01-01T00:08:33Z</time>
      </trkpt>
      <trkpt lat="31.81962000" lon="35.01761000">
        <ele>287.00000</ele>
        <time>2010-01-01T00:08:58Z</time>
      </trkpt>
      <trkpt lat="31.81965000" lon="35.01764000">
        <ele>286.00000</ele>
        <time>2010-01-01T00:08:59Z</time>
      </trkpt>
      <trkpt lat="31.81979000" lon="35.01773000">
        <ele>284.00000</ele>
        <time>2010-01-01T00:09:06Z</time>
      </trkpt>
      <trkpt lat="31.81997000" lon="35.01781000">
        <ele>282.00000</ele>
        <time>2010-01-01T00:09:14Z</time>
      </trkpt>
      <trkpt lat="31.82036000" lon="35.01809000">
        <ele>277.00000</ele>
        <time>2010-01-01T00:09:32Z</time>
      </trkpt>
      <trkpt lat="31.82040000" lon="35.01827000">
        <ele>275.00000</ele>
        <time>2010-01-01T00:09:38Z</time>
      </trkpt>
      <trkpt lat="31.82040000" lon="35.01843000">
        <ele>274.00000</ele>
        <time>2010-01-01T00:09:44Z</time>
      </trkpt>
      <trkpt lat="31.82043000" lon="35.01857000">
        <ele>273.00000</ele>
        <time>2010-01-01T00:09:49Z</time>
      </trkpt>
      <trkpt lat="31.82051000" lon="35.01879000">
        <ele>273.00000</ele>
        <time>2010-01-01T00:09:57Z</time>
      </trkpt>
      <trkpt lat="31.82074000" lon="35.01906000">
        <ele>273.00000</ele>
        <time>2010-01-01T00:10:10Z</time>
      </trkpt>
      <trkpt lat="31.82094000" lon="35.01929640">
        <ele>272.00000</ele>
        <time>2010-01-01T00:10:21Z</time>
      </trkpt>
      <trkpt lat="31.82106760" lon="35.01946800">
        <ele>272.00000</ele>
        <time>2010-01-01T00:10:29Z</time>
      </trkpt>
      <trkpt lat="31.82122720" lon="35.01960210">
        <ele>271.00000</ele>
        <time>2010-01-01T00:10:37Z</time>
      </trkpt>
      <trkpt lat="31.82142770" lon="35.01970940">
        <ele>270.00000</ele>
        <time>2010-01-01T00:10:45Z</time>
      </trkpt>
      <trkpt lat="31.82154620" lon="35.01978450">
        <ele>269.00000</ele>
        <time>2010-01-01T00:10:51Z</time>
      </trkpt>
      <trkpt lat="31.82171030" lon="35.01968260">
        <ele>270.00000</ele>
        <time>2010-01-01T00:10:58Z</time>
      </trkpt>
      <trkpt lat="31.82192460" lon="35.01902810">
        <ele>268.00000</ele>
        <time>2010-01-01T00:11:22Z</time>
      </trkpt>
      <trkpt lat="31.82203850" lon="35.01894770">
        <ele>268.00000</ele>
        <time>2010-01-01T00:11:27Z</time>
      </trkpt>
      <trkpt lat="31.82209320" lon="35.01902280">
        <ele>268.00000</ele>
        <time>2010-01-01T00:11:31Z</time>
      </trkpt>
      <trkpt lat="31.82194730" lon="35.01958600">
        <ele>270.00000</ele>
        <time>2010-01-01T00:11:51Z</time>
      </trkpt>
      <trkpt lat="31.82163280" lon="35.01999370">
        <ele>269.00000</ele>
        <time>2010-01-01T00:12:10Z</time>
      </trkpt>
      <trkpt lat="31.82148700" lon="35.02007960">
        <ele>269.00000</ele>
        <time>2010-01-01T00:12:16Z</time>
      </trkpt>
      <trkpt lat="31.82105850" lon="35.02055700">
        <ele>273.00000</ele>
        <time>2010-01-01T00:12:40Z</time>
      </trkpt>
      <trkpt lat="31.82095370" lon="35.02080910">
        <ele>274.00000</ele>
        <time>2010-01-01T00:12:49Z</time>
      </trkpt>
      <trkpt lat="31.82077000" lon="35.02107000">
        <ele>277.00000</ele>
        <time>2010-01-01T00:13:01Z</time>
      </trkpt>
      <trkpt lat="31.82049000" lon="35.02136000">
        <ele>278.00000</ele>
        <time>2010-01-01T00:13:16Z</time>
      </trkpt>
      <trkpt lat="31.82025000" lon="35.02158000">
        <ele>280.00000</ele>
        <time>2010-01-01T00:13:28Z</time>
      </trkpt>
      <trkpt lat="31.81998000" lon="35.02181000">
        <ele>280.00000</ele>
        <time>2010-01-01T00:13:41Z</time>
      </trkpt>
      <trkpt lat="31.81976000" lon="35.02210000">
        <ele>281.00000</ele>
        <time>2010-01-01T00:13:54Z</time>
      </trkpt>
      <trkpt lat="31.81947000" lon="35.02242000">
        <ele>282.00000</ele>
        <time>2010-01-01T00:14:10Z</time>
      </trkpt>
      <trkpt lat="31.81928000" lon="35.02270000">
        <ele>282.00000</ele>
        <time>2010-01-01T00:14:23Z</time>
      </trkpt>
      <trkpt lat="31.81912000" lon="35.02308000">
        <ele>283.00000</ele>
        <time>2010-01-01T00:14:37Z</time>
      </trkpt>
      <trkpt lat="31.81905000" lon="35.02328000">
        <ele>284.00000</ele>
        <time>2010-01-01T00:14:44Z</time>
      </trkpt>
      <trkpt lat="31.81897000" lon="35.02362000">
        <ele>285.00000</ele>
        <time>2010-01-01T00:14:56Z</time>
      </trkpt>
      <trkpt lat="31.81898000" lon="35.02405000">
        <ele>287.00000</ele>
        <time>2010-01-01T00:15:11Z</time>
      </trkpt>
      <trkpt lat="31.81902000" lon="35.02435000">
        <ele>289.00000</ele>
        <time>2010-01-01T00:15:21Z</time>
      </trkpt>
      <trkpt lat="31.81901000" lon="35.02439000">
        <ele>289.00000</ele>
        <time>2010-01-01T00:15:23Z</time>
      </trkpt>
      <trkpt lat="31.81865000" lon="35.02457000">
        <ele>289.00000</ele>
        <time>2010-01-01T00:15:38Z</time>
      </trkpt>
      <trkpt lat="31.81838000" lon="35.02498000">
        <ele>291.00000</ele>
        <time>2010-01-01T00:15:56Z</time>
      </trkpt>
      <trkpt lat="31.81819000" lon="35.02545000">
        <ele>291.00000</ele>
        <time>2010-01-01T00:16:14Z</time>
      </trkpt>
      <trkpt lat="31.81812000" lon="35.02574000">
        <ele>292.00000</ele>
        <time>2010-01-01T00:16:24Z</time>
      </trkpt>
      <trkpt lat="31.81802000" lon="35.02609000">
        <ele>294.00000</ele>
        <time>2010-01-01T00:16:37Z</time>
      </trkpt>
      <trkpt lat="31.81776000" lon="35.02615000">
        <ele>295.00000</ele>
        <time>2010-01-01T00:16:47Z</time>
      </trkpt>
      <trkpt lat="31.81763000" lon="35.02630000">
        <ele>297.00000</ele>
        <time>2010-01-01T00:16:54Z</time>
      </trkpt>
      <trkpt lat="31.81756000" lon="35.02695000">
        <ele>299.00000</ele>
        <time>2010-01-01T00:17:17Z</time>
      </trkpt>
      <trkpt lat="31.81754000" lon="35.02751000">
        <ele>301.00000</ele>
        <time>2010-01-01T00:17:36Z</time>
      </trkpt>
      <trkpt lat="31.81752000" lon="35.02825000">
        <ele>305.00000</ele>
        <time>2010-01-01T00:18:01Z</time>
      </trkpt>
      <trkpt lat="31.81747000" lon="35.02860000">
        <ele>305.00000</ele>
        <time>2010-01-01T00:18:13Z</time>
      </trkpt>
      <trkpt lat="31.81735000" lon="35.02914000">
        <ele>308.00000</ele>
        <time>2010-01-01T00:18:32Z</time>
      </trkpt>
      <trkpt lat="31.81724000" lon="35.02967000">
        <ele>309.00000</ele>
        <time>2010-01-01T00:18:51Z</time>
      </trkpt>
      <trkpt lat="31.81734000" lon="35.03026000">
        <ele>311.00000</ele>
        <time>2010-01-01T00:19:11Z</time>
      </trkpt>
      <trkpt lat="31.81749000" lon="35.03076000">
        <ele>311.00000</ele>
        <time>2010-01-01T00:19:29Z</time>
      </trkpt>
      <trkpt lat="31.81739000" lon="35.03084000">
        <ele>313.00000</ele>
        <time>2010-01-01T00:19:34Z</time>
      </trkpt>
      <trkpt lat="31.81732000" lon="35.03077000">
        <ele>313.00000</ele>
        <time>2010-01-01T00:19:38Z</time>
      </trkpt>
      <trkpt lat="31.81727000" lon="35.03071000">
        <ele>313.00000</ele>
        <time>2010-01-01T00:19:40Z</time>
      </trkpt>
      <trkpt lat="31.81704000" lon="35.03043000">
        <ele>313.00000</ele>
        <time>2010-01-01T00:19:54Z</time>
      </trkpt>
      <trkpt lat="31.81685000" lon="35.03034000">
        <ele>314.00000</ele>
        <time>2010-01-01T00:20:02Z</time>
      </trkpt>
      <trkpt lat="31.81663000" lon="35.03031000">
        <ele>318.00000</ele>
        <time>2010-01-01T00:20:11Z</time>
      </trkpt>
      <trkpt lat="31.81640000" lon="35.03037000">
        <ele>322.00000</ele>
        <time>2010-01-01T00:20:20Z</time>
      </trkpt>
      <trkpt lat="31.81636000" lon="35.03038000">
        <ele>323.00000</ele>
        <time>2010-01-01T00:20:22Z</time>
      </trkpt>
      <trkpt lat="31.81619000" lon="35.03042000">
        <ele>326.00000</ele>
        <time>2010-01-01T00:20:29Z</time>
      </trkpt>
      <trkpt lat="31.81605000" lon="35.03042000">
        <ele>328.00000</ele>
        <time>2010-01-01T00:20:34Z</time>
      </trkpt>
      <trkpt lat="31.81601000" lon="35.03022000">
        <ele>329.00000</ele>
        <time>2010-01-01T00:20:41Z</time>
      </trkpt>
      <trkpt lat="31.81631000" lon="35.02976000">
        <ele>326.00000</ele>
        <time>2010-01-01T00:21:01Z</time>
      </trkpt>
      <trkpt lat="31.81636000" lon="35.02965000">
        <ele>326.00000</ele>
        <time>2010-01-01T00:21:05Z</time>
      </trkpt>
      <trkpt lat="31.81646000" lon="35.02928000">
        <ele>326.00000</ele>
        <time>2010-01-01T00:21:19Z</time>
      </trkpt>
      <trkpt lat="31.81656000" lon="35.02879000">
        <ele>332.00000</ele>
        <time>2010-01-01T00:21:36Z</time>
      </trkpt>
      <trkpt lat="31.81660000" lon="35.02863000">
        <ele>334.00000</ele>
        <time>2010-01-01T00:21:41Z</time>
      </trkpt>
      <trkpt lat="31.81675000" lon="35.02811000">
        <ele>333.00000</ele>
        <time>2010-01-01T00:22:00Z</time>
      </trkpt>
      <trkpt lat="31.81677000" lon="35.02776000">
        <ele>333.00000</ele>
        <time>2010-01-01T00:22:12Z</time>
      </trkpt>
      <trkpt lat="31.81668000" lon="35.02755000">
        <ele>335.00000</ele>
        <time>2010-01-01T00:22:20Z</time>
      </trkpt>
      <trkpt lat="31.81653000" lon="35.02729000">
        <ele>340.00000</ele>
        <time>2010-01-01T00:22:31Z</time>
      </trkpt>
      <trkpt lat="31.81637000" lon="35.02703000">
        <ele>342.00000</ele>
        <time>2010-01-01T00:22:42Z</time>
      </trkpt>
      <trkpt lat="31.81617000" lon="35.02682000">
        <ele>345.00000</ele>
        <time>2010-01-01T00:22:52Z</time>
      </trkpt>
      <trkpt lat="31.81609000" lon="35.02676000">
        <ele>346.00000</ele>
        <time>2010-01-01T00:22:56Z</time>
      </trkpt>
      <trkpt lat="31.81579000" lon="35.02664000">
        <ele>348.00000</ele>
        <time>2010-01-01T00:23:09Z</time>
      </trkpt>
      <trkpt lat="31.81557000" lon="35.02663000">
        <ele>349.00000</ele>
        <time>2010-01-01T00:23:18Z</time>
      </trkpt>
      <trkpt lat="31.81532000" lon="35.02678000">
        <ele>352.00000</ele>
        <time>2010-01-01T00:23:29Z</time>
      </trkpt>
      <trkpt lat="31.81509000" lon="35.02698000">
        <ele>354.00000</ele>
        <time>2010-01-01T00:23:40Z</time>
      </trkpt>
      <trkpt lat="31.81494000" lon="35.02713000">
        <ele>355.00000</ele>
        <time>2010-01-01T00:23:48Z</time>
      </trkpt>
      <trkpt lat="31.81488000" lon="35.02722000">
        <ele>357.00000</ele>
        <time>2010-01-01T00:23:52Z</time>
      </trkpt>
      <trkpt lat="31.81475000" lon="35.02748000">
        <ele>359.00000</ele>
        <time>2010-01-01T00:24:02Z</time>
      </trkpt>
      <trkpt lat="31.81466000" lon="35.02778000">
        <ele>362.00000</ele>
        <time>2010-01-01T00:24:13Z</time>
      </trkpt>
      <trkpt lat="31.81454000" lon="35.02815000">
        <ele>366.00000</ele>
        <time>2010-01-01T00:24:27Z</time>
      </trkpt>
      <trkpt lat="31.81442000" lon="35.02841000">
        <ele>368.00000</ele>
        <time>2010-01-01T00:24:37Z</time>
      </trkpt>
      <trkpt lat="31.81424000" lon="35.02868000">
        <ele>371.00000</ele>
        <time>2010-01-01T00:24:48Z</time>
      </trkpt>
      <trkpt lat="31.81401000" lon="35.02885000">
        <ele>372.00000</ele>
        <time>2010-01-01T00:24:59Z</time>
      </trkpt>
      <trkpt lat="31.81380000" lon="35.02912000">
        <ele>373.00000</ele>
        <time>2010-01-01T00:25:12Z</time>
      </trkpt>
      <trkpt lat="31.81370000" lon="35.02940000">
        <ele>376.00000</ele>
        <time>2010-01-01T00:25:22Z</time>
      </trkpt>
      <trkpt lat="31.81361000" lon="35.02980000">
        <ele>379.00000</ele>
        <time>2010-01-01T00:25:36Z</time>
      </trkpt>
      <trkpt lat="31.81361000" lon="35.03008000">
        <ele>381.00000</ele>
        <time>2010-01-01T00:25:46Z</time>
      </trkpt>
      <trkpt lat="31.81371000" lon="35.03042000">
        <ele>386.00000</ele>
        <time>2010-01-01T00:25:58Z</time>
      </trkpt>
      <trkpt lat="31.81378000" lon="35.03081000">
        <ele>388.00000</ele>
        <time>2010-01-01T00:26:11Z</time>
      </trkpt>
      <trkpt lat="31.81376000" lon="35.03109000">
        <ele>388.00000</ele>
        <time>2010-01-01T00:26:21Z</time>
      </trkpt>
      <trkpt lat="31.81359000" lon="35.03137000">
        <ele>392.00000</ele>
        <time>2010-01-01T00:26:33Z</time>
      </trkpt>
      <trkpt lat="31.81333000" lon="35.03149000">
        <ele>397.00000</ele>
        <time>2010-01-01T00:26:44Z</time>
      </trkpt>
      <trkpt lat="31.81314000" lon="35.03151000">
        <ele>398.00000</ele>
        <time>2010-01-01T00:26:51Z</time>
      </trkpt>
      <trkpt lat="31.81295000" lon="35.03150000">
        <ele>399.00000</ele>
        <time>2010-01-01T00:26:59Z</time>
      </trkpt>
      <trkpt lat="31.81283000" lon="35.03150000">
        <ele>398.00000</ele>
        <time>2010-01-01T00:27:04Z</time>
      </trkpt>
      <trkpt lat="31.81278000" lon="35.03148000">
        <ele>398.00000</ele>
        <time>2010-01-01T00:27:06Z</time>
      </trkpt>
      <trkpt lat="31.81268000" lon="35.03145000">
        <ele>398.00000</ele>
        <time>2010-01-01T00:27:10Z</time>
      </trkpt>
      <trkpt lat="31.81260000" lon="35.03143000">
        <ele>399.00000</ele>
        <time>2010-01-01T00:27:13Z</time>
      </trkpt>
      <trkpt lat="31.81239000" lon="35.03139000">
        <ele>400.00000</ele>
        <time>2010-01-01T00:27:22Z</time>
      </trkpt>
      <trkpt lat="31.81220000" lon="35.03149000">
        <ele>403.00000</ele>
        <time>2010-01-01T00:27:30Z</time>
      </trkpt>
      <trkpt lat="31.81209000" lon="35.03168000">
        <ele>403.00000</ele>
        <time>2010-01-01T00:27:38Z</time>
      </trkpt>
      <trkpt lat="31.81204000" lon="35.03204000">
        <ele>408.00000</ele>
        <time>2010-01-01T00:27:50Z</time>
      </trkpt>
      <trkpt lat="31.81204000" lon="35.03221000">
        <ele>410.00000</ele>
        <time>2010-01-01T00:27:56Z</time>
      </trkpt>
      <trkpt lat="31.81195000" lon="35.03267000">
        <ele>414.00000</ele>
        <time>2010-01-01T00:28:12Z</time>
      </trkpt>
      <trkpt lat="31.81180000" lon="35.03307000">
        <ele>416.00000</ele>
        <time>2010-01-01T00:28:27Z</time>
      </trkpt>
      <trkpt lat="31.81160000" lon="35.03351000">
        <ele>416.00000</ele>
        <time>2010-01-01T00:28:44Z</time>
      </trkpt>
      <trkpt lat="31.81147000" lon="35.03381000">
        <ele>420.00000</ele>
        <time>2010-01-01T00:28:56Z</time>
      </trkpt>
      <trkpt lat="31.81130000" lon="35.03404000">
        <ele>425.00000</ele>
        <time>2010-01-01T00:29:06Z</time>
      </trkpt>
      <trkpt lat="31.81114000" lon="35.03417000">
        <ele>428.00000</ele>
        <time>2010-01-01T00:29:14Z</time>
      </trkpt>
      <trkpt lat="31.81096000" lon="35.03424000">
        <ele>430.00000</ele>
        <time>2010-01-01T00:29:21Z</time>
      </trkpt>
      <trkpt lat="31.81069000" lon="35.03426000">
        <ele>432.00000</ele>
        <time>2010-01-01T00:29:32Z</time>
      </trkpt>
      <trkpt lat="31.81038000" lon="35.03423000">
        <ele>434.00000</ele>
        <time>2010-01-01T00:29:45Z</time>
      </trkpt>
      <trkpt lat="31.81005000" lon="35.03418000">
        <ele>436.00000</ele>
        <time>2010-01-01T00:29:58Z</time>
      </trkpt>
      <trkpt lat="31.80985000" lon="35.03420000">
        <ele>435.00000</ele>
        <time>2010-01-01T00:30:06Z</time>
      </trkpt>
      <trkpt lat="31.80963000" lon="35.03428000">
        <ele>434.00000</ele>
        <time>2010-01-01T00:30:15Z</time>
      </trkpt>
      <trkpt lat="31.80950000" lon="35.03440000">
        <ele>435.00000</ele>
        <time>2010-01-01T00:30:22Z</time>
      </trkpt>
      <trkpt lat="31.80929000" lon="35.03462000">
        <ele>437.00000</ele>
        <time>2010-01-01T00:30:33Z</time>
      </trkpt>
      <trkpt lat="31.80915000" lon="35.03483000">
        <ele>439.00000</ele>
        <time>2010-01-01T00:30:42Z</time>
      </trkpt>
      <trkpt lat="31.80899000" lon="35.03517000">
        <ele>444.00000</ele>
        <time>2010-01-01T00:30:55Z</time>
      </trkpt>
      <trkpt lat="31.80883000" lon="35.03562000">
        <ele>449.00000</ele>
        <time>2010-01-01T00:31:12Z</time>
      </trkpt>
      <trkpt lat="31.80874000" lon="35.03593000">
        <ele>451.00000</ele>
        <time>2010-01-01T00:31:23Z</time>
      </trkpt>
      <trkpt lat="31.80868000" lon="35.03614000">
        <ele>453.00000</ele>
        <time>2010-01-01T00:31:31Z</time>
      </trkpt>
      <trkpt lat="31.80854000" lon="35.03639000">
        <ele>455.00000</ele>
        <time>2010-01-01T00:31:41Z</time>
      </trkpt>
      <trkpt lat="31.80838000" lon="35.03661000">
        <ele>456.00000</ele>
        <time>2010-01-01T00:31:51Z</time>
      </trkpt>
      <trkpt lat="31.80828000" lon="35.03687000">
        <ele>459.00000</ele>
        <time>2010-01-01T00:32:00Z</time>
      </trkpt>
      <trkpt lat="31.80823000" lon="35.03707000">
        <ele>461.00000</ele>
        <time>2010-01-01T00:32:07Z</time>
      </trkpt>
      <trkpt lat="31.80818000" lon="35.03735000">
        <ele>464.00000</ele>
        <time>2010-01-01T00:32:17Z</time>
      </trkpt>
      <trkpt lat="31.80817000" lon="35.03761000">
        <ele>466.00000</ele>
        <time>2010-01-01T00:32:26Z</time>
      </trkpt>
      <trkpt lat="31.80817000" lon="35.03792000">
        <ele>467.00000</ele>
        <time>2010-01-01T00:32:37Z</time>
      </trkpt>
      <trkpt lat="31.80824000" lon="35.03825000">
        <ele>469.00000</ele>
        <time>2010-01-01T00:32:48Z</time>
      </trkpt>
      <trkpt lat="31.80833000" lon="35.03850000">
        <ele>471.00000</ele>
        <time>2010-01-01T00:32:57Z</time>
      </trkpt>
      <trkpt lat="31.80844000" lon="35.03872000">
        <ele>475.00000</ele>
        <time>2010-01-01T00:33:06Z</time>
      </trkpt>
      <trkpt lat="31.80856000" lon="35.03896000">
        <ele>478.00000</ele>
        <time>2010-01-01T00:33:16Z</time>
      </trkpt>
      <trkpt lat="31.80867000" lon="35.03917000">
        <ele>480.00000</ele>
        <time>2010-01-01T00:33:24Z</time>
      </trkpt>
      <trkpt lat="31.80880000" lon="35.03945000">
        <ele>481.00000</ele>
        <time>2010-01-01T00:33:35Z</time>
      </trkpt>
      <trkpt lat="31.80894000" lon="35.03971000">
        <ele>481.00000</ele>
        <time>2010-01-01T00:33:45Z</time>
      </trkpt>
      <trkpt lat="31.80916000" lon="35.04012000">
        <ele>483.00000</ele>
        <time>2010-01-01T00:34:02Z</time>
      </trkpt>
      <trkpt lat="31.80928000" lon="35.04052000">
        <ele>484.00000</ele>
        <time>2010-01-01T00:34:16Z</time>
      </trkpt>
      <trkpt lat="31.80930000" lon="35.04060000">
        <ele>485.00000</ele>
        <time>2010-01-01T00:34:19Z</time>
      </trkpt>
      <trkpt lat="31.80921000" lon="35.04087000">
        <ele>487.00000</ele>
        <time>2010-01-01T00:34:29Z</time>
      </trkpt>
      <trkpt lat="31.80915000" lon="35.04093000">
        <ele>488.00000</ele>
        <time>2010-01-01T00:34:32Z</time>
      </trkpt>
      <trkpt lat="31.80901000" lon="35.04110000">
        <ele>489.00000</ele>
        <time>2010-01-01T00:34:40Z</time>
      </trkpt>
      <trkpt lat="31.80889000" lon="35.04126000">
        <ele>492.00000</ele>
        <time>2010-01-01T00:34:47Z</time>
      </trkpt>
      <trkpt lat="31.80870000" lon="35.04149000">
        <ele>494.00000</ele>
        <time>2010-01-01T00:34:58Z</time>
      </trkpt>
      <trkpt lat="31.80847000" lon="35.04162000">
        <ele>494.00000</ele>
        <time>2010-01-01T00:35:09Z</time>
      </trkpt>
      <trkpt lat="31.80823000" lon="35.04180000">
        <ele>493.00000</ele>
        <time>2010-01-01T00:35:20Z</time>
      </trkpt>
      <trkpt lat="31.80815000" lon="35.04203000">
        <ele>495.00000</ele>
        <time>2010-01-01T00:35:28Z</time>
      </trkpt>
      <trkpt lat="31.80812000" lon="35.04233000">
        <ele>499.00000</ele>
        <time>2010-01-01T00:35:39Z</time>
      </trkpt>
      <trkpt lat="31.80812000" lon="35.04260000">
        <ele>501.00000</ele>
        <time>2010-01-01T00:35:48Z</time>
      </trkpt>
      <trkpt lat="31.80813000" lon="35.04307000">
        <ele>507.00000</ele>
        <time>2010-01-01T00:36:04Z</time>
      </trkpt>
      <trkpt lat="31.80815000" lon="35.04335000">
        <ele>509.00000</ele>
        <time>2010-01-01T00:36:13Z</time>
      </trkpt>
      <trkpt lat="31.80813000" lon="35.04357000">
        <ele>510.00000</ele>
        <time>2010-01-01T00:36:21Z</time>
      </trkpt>
      <trkpt lat="31.80812000" lon="35.04381000">
        <ele>513.00000</ele>
        <time>2010-01-01T00:36:29Z</time>
      </trkpt>
      <trkpt lat="31.80810000" lon="35.04401000">
        <ele>515.00000</ele>
        <time>2010-01-01T00:36:36Z</time>
      </trkpt>
      <trkpt lat="31.80808000" lon="35.04423000">
        <ele>518.00000</ele>
        <time>2010-01-01T00:36:43Z</time>
      </trkpt>
      <trkpt lat="31.80807000" lon="35.04438000">
        <ele>519.00000</ele>
        <time>2010-01-01T00:36:49Z</time>
      </trkpt>
      <trkpt lat="31.80806000" lon="35.04451000">
        <ele>520.00000</ele>
        <time>2010-01-01T00:36:53Z</time>
      </trkpt>
      <trkpt lat="31.80807000" lon="35.04475000">
        <ele>523.00000</ele>
        <time>2010-01-01T00:37:01Z</time>
      </trkpt>
      <trkpt lat="31.80806000" lon="35.04495000">
        <ele>525.00000</ele>
        <time>2010-01-01T00:37:08Z</time>
      </trkpt>
      <trkpt lat="31.80806000" lon="35.04523000">
        <ele>529.00000</ele>
        <time>2010-01-01T00:37:18Z</time>
      </trkpt>
      <trkpt lat="31.80803000" lon="35.04551000">
        <ele>530.00000</ele>
        <time>2010-01-01T00:37:27Z</time>
      </trkpt>
      <trkpt lat="31.80800000" lon="35.04579000">
        <ele>532.00000</ele>
        <time>2010-01-01T00:37:37Z</time>
      </trkpt>
      <trkpt lat="31.80798000" lon="35.04607000">
        <ele>533.00000</ele>
        <time>2010-01-01T00:37:46Z</time>
      </trkpt>
      <trkpt lat="31.80793000" lon="35.04636000">
        <ele>535.00000</ele>
        <time>2010-01-01T00:37:56Z</time>
      </trkpt>
      <trkpt lat="31.80788000" lon="35.04662000">
        <ele>537.00000</ele>
        <time>2010-01-01T00:38:05Z</time>
      </trkpt>
      <trkpt lat="31.80785000" lon="35.04676000">
        <ele>539.00000</ele>
        <time>2010-01-01T00:38:10Z</time>
      </trkpt>
      <trkpt lat="31.80783000" lon="35.04710000">
        <ele>544.00000</ele>
        <time>2010-01-01T00:38:22Z</time>
      </trkpt>
      <trkpt lat="31.80783000" lon="35.04722000">
        <ele>545.00000</ele>
        <time>2010-01-01T00:38:26Z</time>
      </trkpt>
      <trkpt lat="31.80783000" lon="35.04743000">
        <ele>546.00000</ele>
        <time>2010-01-01T00:38:33Z</time>
      </trkpt>
      <trkpt lat="31.80787000" lon="35.04773000">
        <ele>547.00000</ele>
        <time>2010-01-01T00:38:43Z</time>
      </trkpt>
      <trkpt lat="31.80792000" lon="35.04797000">
        <ele>548.00000</ele>
        <time>2010-01-01T00:38:52Z</time>
      </trkpt>
      <trkpt lat="31.80796000" lon="35.04813000">
        <ele>550.00000</ele>
        <time>2010-01-01T00:38:58Z</time>
      </trkpt>
      <trkpt lat="31.80801000" lon="35.04833000">
        <ele>552.00000</ele>
        <time>2010-01-01T00:39:05Z</time>
      </trkpt>
      <trkpt lat="31.80809000" lon="35.04860000">
        <ele>555.00000</ele>
        <time>2010-01-01T00:39:14Z</time>
      </trkpt>
      <trkpt lat="31.80817000" lon="35.04886000">
        <ele>557.00000</ele>
        <time>2010-01-01T00:39:24Z</time>
      </trkpt>
      <trkpt lat="31.80826000" lon="35.04912000">
        <ele>561.00000</ele>
        <time>2010-01-01T00:39:33Z</time>
      </trkpt>
      <trkpt lat="31.80837000" lon="35.04936000">
        <ele>564.00000</ele>
        <time>2010-01-01T00:39:43Z</time>
      </trkpt>
      <trkpt lat="31.80839000" lon="35.04940000">
        <ele>564.00000</ele>
        <time>2010-01-01T00:39:44Z</time>
      </trkpt>
      <trkpt lat="31.80844000" lon="35.04948000">
        <ele>564.00000</ele>
        <time>2010-01-01T00:39:48Z</time>
      </trkpt>
      <trkpt lat="31.80859000" lon="35.04969000">
        <ele>565.00000</ele>
        <time>2010-01-01T00:39:57Z</time>
      </trkpt>
      <trkpt lat="31.80869000" lon="35.04979000">
        <ele>565.00000</ele>
        <time>2010-01-01T00:40:02Z</time>
      </trkpt>
      <trkpt lat="31.80852000" lon="35.05003000">
        <ele>566.00000</ele>
        <time>2010-01-01T00:40:13Z</time>
      </trkpt>
      <trkpt lat="31.80808000" lon="35.05021000">
        <ele>566.00000</ele>
        <time>2010-01-01T00:40:31Z</time>
      </trkpt>
      <trkpt lat="31.80762000" lon="35.05038000">
        <ele>565.00000</ele>
        <time>2010-01-01T00:40:51Z</time>
      </trkpt>
      <trkpt lat="31.80737000" lon="35.05067000">
        <ele>565.00000</ele>
        <time>2010-01-01T00:41:05Z</time>
      </trkpt>
      <trkpt lat="31.80738000" lon="35.05154000">
        <ele>562.00000</ele>
        <time>2010-01-01T00:41:34Z</time>
      </trkpt>
      <trkpt lat="31.80764000" lon="35.05213000">
        <ele>563.00000</ele>
        <time>2010-01-01T00:41:57Z</time>
      </trkpt>
      <trkpt lat="31.80799000" lon="35.05266000">
        <ele>561.00000</ele>
        <time>2010-01-01T00:42:20Z</time>
      </trkpt>
      <trkpt lat="31.80826000" lon="35.05316000">
        <ele>558.00000</ele>
        <time>2010-01-01T00:42:40Z</time>
      </trkpt>
      <trkpt lat="31.80851000" lon="35.05378000">
        <ele>555.00000</ele>
        <time>2010-01-01T00:43:03Z</time>
      </trkpt>
      <trkpt lat="31.80856000" lon="35.05404000">
        <ele>554.00000</ele>
        <time>2010-01-01T00:43:12Z</time>
      </trkpt>
      <trkpt lat="31.80849000" lon="35.05481000">
        <ele>552.00000</ele>
        <time>2010-01-01T00:43:39Z</time>
      </trkpt>
      <trkpt lat="31.80852000" lon="35.05578000">
        <ele>556.00000</ele>
        <time>2010-01-01T00:44:12Z</time>
      </trkpt>
      <trkpt lat="31.80867000" lon="35.05675000">
        <ele>552.00000</ele>
        <time>2010-01-01T00:44:45Z</time>
      </trkpt>
      <trkpt lat="31.80881000" lon="35.05747000">
        <ele>551.00000</ele>
        <time>2010-01-01T00:45:10Z</time>
      </trkpt>
      <trkpt lat="31.80892000" lon="35.05796000">
        <ele>553.00000</ele>
        <time>2010-01-01T00:45:28Z</time>
      </trkpt>
      <trkpt lat="31.80894000" lon="35.05872000">
        <ele>552.00000</ele>
        <time>2010-01-01T00:45:54Z</time>
      </trkpt>
      <trkpt lat="31.80888000" lon="35.05930000">
        <ele>557.00000</ele>
        <time>2010-01-01T00:46:13Z</time>
      </trkpt>
      <trkpt lat="31.80881000" lon="35.05970000">
        <ele>559.00000</ele>
        <time>2010-01-01T00:46:27Z</time>
      </trkpt>
      <trkpt lat="31.80875000" lon="35.05993000">
        <ele>560.00000</ele>
        <time>2010-01-01T00:46:35Z</time>
      </trkpt>
      <trkpt lat="31.80868000" lon="35.06015000">
        <ele>563.00000</ele>
        <time>2010-01-01T00:46:43Z</time>
      </trkpt>
      <trkpt lat="31.80865000" lon="35.06022000">
        <ele>563.00000</ele>
        <time>2010-01-01T00:46:46Z</time>
      </trkpt>
      <trkpt lat="31.80856000" lon="35.06042000">
        <ele>566.00000</ele>
        <time>2010-01-01T00:46:54Z</time>
      </trkpt>
      <trkpt lat="31.80846000" lon="35.06065000">
        <ele>569.00000</ele>
        <time>2010-01-01T00:47:03Z</time>
      </trkpt>
      <trkpt lat="31.80833000" lon="35.06092000">
        <ele>570.00000</ele>
        <time>2010-01-01T00:47:13Z</time>
      </trkpt>
      <trkpt lat="31.80817000" lon="35.06122000">
        <ele>571.00000</ele>
        <time>2010-01-01T00:47:25Z</time>
      </trkpt>
      <trkpt lat="31.80793000" lon="35.06161000">
        <ele>575.00000</ele>
        <time>2010-01-01T00:47:42Z</time>
      </trkpt>
      <trkpt lat="31.80761000" lon="35.06205000">
        <ele>576.00000</ele>
        <time>2010-01-01T00:48:01Z</time>
      </trkpt>
      <trkpt lat="31.80735000" lon="35.06241000">
        <ele>577.00000</ele>
        <time>2010-01-01T00:48:17Z</time>
      </trkpt>
      <trkpt lat="31.80696000" lon="35.06285000">
        <ele>579.00000</ele>
        <time>2010-01-01T00:48:39Z</time>
      </trkpt>
      <trkpt lat="31.80649000" lon="35.06342000">
        <ele>575.00000</ele>
        <time>2010-01-01T00:49:06Z</time>
      </trkpt>
      <trkpt lat="31.80601000" lon="35.06415000">
        <ele>577.00000</ele>
        <time>2010-01-01T00:49:37Z</time>
      </trkpt>
      <trkpt lat="31.80552000" lon="35.06495000">
        <ele>577.00000</ele>
        <time>2010-01-01T00:50:11Z</time>
      </trkpt>
      <trkpt lat="31.80519000" lon="35.06538000">
        <ele>575.00000</ele>
        <time>2010-01-01T00:50:31Z</time>
      </trkpt>
      <trkpt lat="31.80511000" lon="35.06549000">
        <ele>575.00000</ele>
        <time>2010-01-01T00:50:36Z</time>
      </trkpt>
      <trkpt lat="31.80494000" lon="35.06579000">
        <ele>579.00000</ele>
        <time>2010-01-01T00:50:48Z</time>
      </trkpt>
      <trkpt lat="31.80487000" lon="35.06597000">
        <ele>580.00000</ele>
        <time>2010-01-01T00:50:55Z</time>
      </trkpt>
      <trkpt lat="31.80482000" lon="35.06636000">
        <ele>585.00000</ele>
        <time>2010-01-01T00:51:08Z</time>
      </trkpt>
      <trkpt lat="31.80474000" lon="35.06667000">
        <ele>588.00000</ele>
        <time>2010-01-01T00:51:19Z</time>
      </trkpt>
      <trkpt lat="31.80459000" lon="35.06687000">
        <ele>588.00000</ele>
        <time>2010-01-01T00:51:28Z</time>
      </trkpt>
      <trkpt lat="31.80440000" lon="35.06710000">
        <ele>588.00000</ele>
        <time>2010-01-01T00:51:39Z</time>
      </trkpt>
      <trkpt lat="31.80429000" lon="35.06744000">
        <ele>589.00000</ele>
        <time>2010-01-01T00:51:51Z</time>
      </trkpt>
      <trkpt lat="31.80429000" lon="35.06791000">
        <ele>589.00000</ele>
        <time>2010-01-01T00:52:07Z</time>
      </trkpt>
      <trkpt lat="31.80428000" lon="35.06807000">
        <ele>589.00000</ele>
        <time>2010-01-01T00:52:13Z</time>
      </trkpt>
      <trkpt lat="31.80424000" lon="35.06821000">
        <ele>589.00000</ele>
        <time>2010-01-01T00:52:18Z</time>
      </trkpt>
      <trkpt lat="31.80405000" lon="35.06867000">
        <ele>589.00000</ele>
        <time>2010-01-01T00:52:35Z</time>
      </trkpt>
      <trkpt lat="31.80404000" lon="35.06865000">
        <ele>588.00000</ele>
        <time>2010-01-01T00:52:36Z</time>
      </trkpt>
      <trkpt lat="31.80387000" lon="35.06899000">
        <ele>589.00000</ele>
        <time>2010-01-01T00:52:50Z</time>
      </trkpt>
      <trkpt lat="31.80340000" lon="35.06967000">
        <ele>588.00000</ele>
        <time>2010-01-01T00:53:19Z</time>
      </trkpt>
      <trkpt lat="31.80307000" lon="35.07021000">
        <ele>587.00000</ele>
        <time>2010-01-01T00:53:42Z</time>
      </trkpt>
      <trkpt lat="31.80292000" lon="35.07044000">
        <ele>586.00000</ele>
        <time>2010-01-01T00:53:52Z</time>
      </trkpt>
      <trkpt lat="31.80284000" lon="35.07056000">
        <ele>586.00000</ele>
        <time>2010-01-01T00:53:57Z</time>
      </trkpt>
      <trkpt lat="31.80255000" lon="35.07108000">
        <ele>586.00000</ele>
        <time>2010-01-01T00:54:18Z</time>
      </trkpt>
      <trkpt lat="31.80240000" lon="35.07141000">
        <ele>586.00000</ele>
        <time>2010-01-01T00:54:31Z</time>
      </trkpt>
      <trkpt lat="31.80239000" lon="35.07146000">
        <ele>586.00000</ele>
        <time>2010-01-01T00:54:33Z</time>
      </trkpt>
      <trkpt lat="31.80234000" lon="35.07151000">
        <ele>585.00000</ele>
        <time>2010-01-01T00:54:35Z</time>
      </trkpt>
      <trkpt lat="31.80234000" lon="35.07159000">
        <ele>586.00000</ele>
        <time>2010-01-01T00:54:38Z</time>
      </trkpt>
      <trkpt lat="31.80234000" lon="35.07166000">
        <ele>586.00000</ele>
        <time>2010-01-01T00:54:40Z</time>
      </trkpt>
      <trkpt lat="31.80239000" lon="35.07193000">
        <ele>586.00000</ele>
        <time>2010-01-01T00:54:50Z</time>
      </trkpt>
      <trkpt lat="31.80212000" lon="35.07233000">
        <ele>583.00000</ele>
        <time>2010-01-01T00:55:07Z</time>
      </trkpt>
      <trkpt lat="31.80173000" lon="35.07297000">
        <ele>583.00000</ele>
        <time>2010-01-01T00:55:34Z</time>
      </trkpt>
      <trkpt lat="31.80152000" lon="35.07352000">
        <ele>584.00000</ele>
        <time>2010-01-01T00:55:54Z</time>
      </trkpt>
      <trkpt lat="31.80118000" lon="35.07457000">
        <ele>584.00000</ele>
        <time>2010-01-01T00:56:33Z</time>
      </trkpt>
      <trkpt lat="31.80110000" lon="35.07497000">
        <ele>584.00000</ele>
        <time>2010-01-01T00:56:47Z</time>
      </trkpt>
      <trkpt lat="31.80115000" lon="35.07545000">
        <ele>583.00000</ele>
        <time>2010-01-01T00:57:03Z</time>
      </trkpt>
      <trkpt lat="31.80125000" lon="35.07566000">
        <ele>585.00000</ele>
        <time>2010-01-01T00:57:11Z</time>
      </trkpt>
      <trkpt lat="31.80152000" lon="35.07560000">
        <ele>587.00000</ele>
        <time>2010-01-01T00:57:22Z</time>
      </trkpt>
      <trkpt lat="31.80172000" lon="35.07541000">
        <ele>586.00000</ele>
        <time>2010-01-01T00:57:33Z</time>
      </trkpt>
      <trkpt lat="31.80197000" lon="35.07529000">
        <ele>586.00000</ele>
        <time>2010-01-01T00:57:43Z</time>
      </trkpt>
      <trkpt lat="31.80238000" lon="35.07532000">
        <ele>589.00000</ele>
        <time>2010-01-01T00:58:00Z</time>
      </trkpt>
      <trkpt lat="31.80268000" lon="35.07546000">
        <ele>591.00000</ele>
        <time>2010-01-01T00:58:13Z</time>
      </trkpt>
      <trkpt lat="31.80290000" lon="35.07569000">
        <ele>594.00000</ele>
        <time>2010-01-01T00:58:25Z</time>
      </trkpt>
      <trkpt lat="31.80304000" lon="35.07589000">
        <ele>596.00000</ele>
        <time>2010-01-01T00:58:33Z</time>
      </trkpt>
      <trkpt lat="31.80326000" lon="35.07622000">
        <ele>597.00000</ele>
        <time>2010-01-01T00:58:48Z</time>
      </trkpt>
      <trkpt lat="31.80345000" lon="35.07650000">
        <ele>594.00000</ele>
        <time>2010-01-01T00:59:00Z</time>
      </trkpt>
      <trkpt lat="31.80373000" lon="35.07695000">
        <ele>592.00000</ele>
        <time>2010-01-01T00:59:19Z</time>
      </trkpt>
      <trkpt lat="31.80402000" lon="35.07763000">
        <ele>596.00000</ele>
        <time>2010-01-01T00:59:45Z</time>
      </trkpt>
      <trkpt lat="31.80406000" lon="35.07787000">
        <ele>598.00000</ele>
        <time>2010-01-01T00:59:53Z</time>
      </trkpt>
      <trkpt lat="31.80408000" lon="35.07818000">
        <ele>602.00000</ele>
        <time>2010-01-01T01:00:04Z</time>
      </trkpt>
      <trkpt lat="31.80408000" lon="35.07827000">
        <ele>603.00000</ele>
        <time>2010-01-01T01:00:07Z</time>
      </trkpt>
      <trkpt lat="31.80408000" lon="35.07837000">
        <ele>604.00000</ele>
        <time>2010-01-01T01:00:10Z</time>
      </trkpt>
      <trkpt lat="31.80408000" lon="35.07868000">
        <ele>608.00000</ele>
        <time>2010-01-01T01:00:21Z</time>
      </trkpt>
      <trkpt lat="31.80404000" lon="35.07898000">
        <ele>611.00000</ele>
        <time>2010-01-01T01:00:31Z</time>
      </trkpt>
      <trkpt lat="31.80400000" lon="35.07923000">
        <ele>613.00000</ele>
        <time>2010-01-01T01:00:40Z</time>
      </trkpt>
      <trkpt lat="31.80393000" lon="35.07948000">
        <ele>616.00000</ele>
        <time>2010-01-01T01:00:49Z</time>
      </trkpt>
      <trkpt lat="31.80386000" lon="35.07973000">
        <ele>618.00000</ele>
        <time>2010-01-01T01:00:57Z</time>
      </trkpt>
      <trkpt lat="31.80379000" lon="35.07996000">
        <ele>620.00000</ele>
        <time>2010-01-01T01:01:06Z</time>
      </trkpt>
      <trkpt lat="31.80373000" lon="35.08016000">
        <ele>620.00000</ele>
        <time>2010-01-01T01:01:13Z</time>
      </trkpt>
      <trkpt lat="31.80366000" lon="35.08045000">
        <ele>621.00000</ele>
        <time>2010-01-01T01:01:23Z</time>
      </trkpt>
      <trkpt lat="31.80358000" lon="35.08077000">
        <ele>624.00000</ele>
        <time>2010-01-01T01:01:35Z</time>
      </trkpt>
      <trkpt lat="31.80343000" lon="35.08101000">
        <ele>629.00000</ele>
        <time>2010-01-01T01:01:45Z</time>
      </trkpt>
      <trkpt lat="31.80329000" lon="35.08121000">
        <ele>632.00000</ele>
        <time>2010-01-01T01:01:54Z</time>
      </trkpt>
      <trkpt lat="31.80321000" lon="35.08133000">
        <ele>632.00000</ele>
        <time>2010-01-01T01:01:59Z</time>
      </trkpt>
      <trkpt lat="31.80311000" lon="35.08162000">
        <ele>633.00000</ele>
        <time>2010-01-01T01:02:09Z</time>
      </trkpt>
      <trkpt lat="31.80301000" lon="35.08186000">
        <ele>636.00000</ele>
        <time>2010-01-01T01:02:18Z</time>
      </trkpt>
      <trkpt lat="31.80295000" lon="35.08205000">
        <ele>638.00000</ele>
        <time>2010-01-01T01:02:25Z</time>
      </trkpt>
      <trkpt lat="31.80291000" lon="35.08211000">
        <ele>639.00000</ele>
        <time>2010-01-01T01:02:28Z</time>
      </trkpt>
      <trkpt lat="31.80286000" lon="35.08215000">
        <ele>640.00000</ele>
        <time>2010-01-01T01:02:30Z</time>
      </trkpt>
      <trkpt lat="31.80277860" lon="35.08229610">
        <ele>642.00000</ele>
        <time>2010-01-01T01:02:36Z</time>
      </trkpt>
      <trkpt lat="31.80277860" lon="35.08261790">
        <ele>640.00000</ele>
        <time>2010-01-01T01:02:47Z</time>
      </trkpt>
      <trkpt lat="31.80275120" lon="35.08301490">
        <ele>641.00000</ele>
        <time>2010-01-01T01:03:01Z</time>
      </trkpt>
      <trkpt lat="31.80275120" lon="35.08337970">
        <ele>643.00000</ele>
        <time>2010-01-01T01:03:13Z</time>
      </trkpt>
      <trkpt lat="31.80273750" lon="35.08371230">
        <ele>644.00000</ele>
        <time>2010-01-01T01:03:25Z</time>
      </trkpt>
      <trkpt lat="31.80272390" lon="35.08397510">
        <ele>644.00000</ele>
        <time>2010-01-01T01:03:34Z</time>
      </trkpt>
      <trkpt lat="31.80265090" lon="35.08431850">
        <ele>645.00000</ele>
        <time>2010-01-01T01:03:46Z</time>
      </trkpt>
      <trkpt lat="31.80262360" lon="35.08463500">
        <ele>646.00000</ele>
        <time>2010-01-01T01:03:56Z</time>
      </trkpt>
      <trkpt lat="31.80262810" lon="35.08486030">
        <ele>646.00000</ele>
        <time>2010-01-01T01:04:04Z</time>
      </trkpt>
      <trkpt lat="31.80258710" lon="35.08518750">
        <ele>646.00000</ele>
        <time>2010-01-01T01:04:15Z</time>
      </trkpt>
      <trkpt lat="31.80248680" lon="35.08552550">
        <ele>643.00000</ele>
        <time>2010-01-01T01:04:28Z</time>
      </trkpt>
      <trkpt lat="31.80240020" lon="35.08581510">
        <ele>647.00000</ele>
        <time>2010-01-01T01:04:38Z</time>
      </trkpt>
      <trkpt lat="31.80235910" lon="35.08623360">
        <ele>649.00000</ele>
        <time>2010-01-01T01:04:52Z</time>
      </trkpt>
      <trkpt lat="31.80227250" lon="35.08639990">
        <ele>650.00000</ele>
        <time>2010-01-01T01:04:59Z</time>
      </trkpt>
      <trkpt lat="31.80212210" lon="35.08660910">
        <ele>651.00000</ele>
        <time>2010-01-01T01:05:08Z</time>
      </trkpt>
      <trkpt lat="31.80193510" lon="35.08682900">
        <ele>652.00000</ele>
        <time>2010-01-01T01:05:19Z</time>
      </trkpt>
      <trkpt lat="31.80171630" lon="35.08704900">
        <ele>655.00000</ele>
        <time>2010-01-01T01:05:30Z</time>
      </trkpt>
      <trkpt lat="31.80153850" lon="35.08715620">
        <ele>656.00000</ele>
        <time>2010-01-01T01:05:38Z</time>
      </trkpt>
      <trkpt lat="31.80135160" lon="35.08732790">
        <ele>657.00000</ele>
        <time>2010-01-01T01:05:48Z</time>
      </trkpt>
      <trkpt lat="31.80117380" lon="35.08744060">
        <ele>658.00000</ele>
        <time>2010-01-01T01:05:56Z</time>
      </trkpt>
      <trkpt lat="31.80102330" lon="35.08740300">
        <ele>660.00000</ele>
        <time>2010-01-01T01:06:02Z</time>
      </trkpt>
      <trkpt lat="31.80098230" lon="35.08729570">
        <ele>662.00000</ele>
        <time>2010-01-01T01:06:06Z</time>
      </trkpt>
      <trkpt lat="31.80094580" lon="35.08677000">
        <ele>666.00000</ele>
        <time>2010-01-01T01:06:24Z</time>
      </trkpt>
      <trkpt lat="31.80086830" lon="35.08621210">
        <ele>667.00000</ele>
        <time>2010-01-01T01:06:43Z</time>
      </trkpt>
      <trkpt lat="31.80088200" lon="35.08568100">
        <ele>669.00000</ele>
        <time>2010-01-01T01:07:01Z</time>
      </trkpt>
      <trkpt lat="31.80100960" lon="35.08478520">
        <ele>667.00000</ele>
        <time>2010-01-01T01:07:32Z</time>
      </trkpt>
      <trkpt lat="31.80106890" lon="35.08409850">
        <ele>665.00000</ele>
        <time>2010-01-01T01:07:56Z</time>
      </trkpt>
      <trkpt lat="31.80106890" lon="35.08355670">
        <ele>660.00000</ele>
        <time>2010-01-01T01:08:14Z</time>
      </trkpt>
      <trkpt lat="31.80117380" lon="35.08314900">
        <ele>657.00000</ele>
        <time>2010-01-01T01:08:29Z</time>
      </trkpt>
      <trkpt lat="31.80139260" lon="35.08302030">
        <ele>658.00000</ele>
        <time>2010-01-01T01:08:38Z</time>
      </trkpt>
      <trkpt lat="31.80149290" lon="35.08276820">
        <ele>657.00000</ele>
        <time>2010-01-01T01:08:48Z</time>
      </trkpt>
      <trkpt lat="31.80152480" lon="35.08225320">
        <ele>651.00000</ele>
        <time>2010-01-01T01:09:05Z</time>
      </trkpt>
      <trkpt lat="31.80150200" lon="35.08146460">
        <ele>644.00000</ele>
        <time>2010-01-01T01:09:32Z</time>
      </trkpt>
      <trkpt lat="31.80121480" lon="35.08081550">
        <ele>642.00000</ele>
        <time>2010-01-01T01:09:57Z</time>
      </trkpt>
      <trkpt lat="31.80118290" lon="35.08041320">
        <ele>641.00000</ele>
        <time>2010-01-01T01:10:11Z</time>
      </trkpt>
      <trkpt lat="31.80124670" lon="35.07964070">
        <ele>639.00000</ele>
        <time>2010-01-01T01:10:37Z</time>
      </trkpt>
      <trkpt lat="31.80119660" lon="35.07885750">
        <ele>634.00000</ele>
        <time>2010-01-01T01:11:04Z</time>
      </trkpt>
      <trkpt lat="31.80109170" lon="35.07851950">
        <ele>631.00000</ele>
        <time>2010-01-01T01:11:16Z</time>
      </trkpt>
      <trkpt lat="31.80116460" lon="35.07760220">
        <ele>618.00000</ele>
        <time>2010-01-01T01:11:48Z</time>
      </trkpt>
      <trkpt lat="31.80121020" lon="35.07716230">
        <ele>611.00000</ele>
        <time>2010-01-01T01:12:03Z</time>
      </trkpt>
      <trkpt lat="31.80131050" lon="35.07704970">
        <ele>610.00000</ele>
        <time>2010-01-01T01:12:08Z</time>
      </trkpt>
      <trkpt lat="31.80130600" lon="35.07688870">
        <ele>607.00000</ele>
        <time>2010-01-01T01:12:14Z</time>
      </trkpt>
      <trkpt lat="31.80122390" lon="35.07673850">
        <ele>603.00000</ele>
        <time>2010-01-01T01:12:20Z</time>
      </trkpt>
      <trkpt lat="31.80113730" lon="35.07667950">
        <ele>601.00000</ele>
        <time>2010-01-01T01:12:24Z</time>
      </trkpt>
      <trkpt lat="31.80110000" lon="35.07647000">
        <ele>598.00000</ele>
        <time>2010-01-01T01:12:31Z</time>
      </trkpt>
      <trkpt lat="31.80092000" lon="35.07634000">
        <ele>597.00000</ele>
        <time>2010-01-01T01:12:40Z</time>
      </trkpt>
      <trkpt lat="31.80080000" lon="35.07634000">
        <ele>598.00000</ele>
        <time>2010-01-01T01:12:44Z</time>
      </trkpt>
      <trkpt lat="31.80073000" lon="35.07634000">
        <ele>599.00000</ele>
        <time>2010-01-01T01:12:47Z</time>
      </trkpt>
      <trkpt lat="31.80053000" lon="35.07627000">
        <ele>600.00000</ele>
        <time>2010-01-01T01:12:56Z</time>
      </trkpt>
      <trkpt lat="31.80029000" lon="35.07619000">
        <ele>604.00000</ele>
        <time>2010-01-01T01:13:06Z</time>
      </trkpt>
      <trkpt lat="31.79974000" lon="35.07601000">
        <ele>612.00000</ele>
        <time>2010-01-01T01:13:28Z</time>
      </trkpt>
      <trkpt lat="31.79940000" lon="35.07574000">
        <ele>613.00000</ele>
        <time>2010-01-01T01:13:45Z</time>
      </trkpt>
      <trkpt lat="31.79912000" lon="35.07561000">
        <ele>617.00000</ele>
        <time>2010-01-01T01:13:57Z</time>
      </trkpt>
      <trkpt lat="31.79868000" lon="35.07545000">
        <ele>623.00000</ele>
        <time>2010-01-01T01:14:15Z</time>
      </trkpt>
      <trkpt lat="31.79816000" lon="35.07537000">
        <ele>626.00000</ele>
        <time>2010-01-01T01:14:36Z</time>
      </trkpt>
      <trkpt lat="31.79793000" lon="35.07554000">
        <ele>624.00000</ele>
        <time>2010-01-01T01:14:47Z</time>
      </trkpt>
      <trkpt lat="31.79790000" lon="35.07565000">
        <ele>623.00000</ele>
        <time>2010-01-01T01:14:51Z</time>
      </trkpt>
      <trkpt lat="31.79776000" lon="35.07595000">
        <ele>619.00000</ele>
        <time>2010-01-01T01:15:03Z</time>
      </trkpt>
      <trkpt lat="31.79793000" lon="35.07618000">
        <ele>615.00000</ele>
        <time>2010-01-01T01:15:13Z</time>
      </trkpt>
      <trkpt lat="31.79824000" lon="35.07614000">
        <ele>617.00000</ele>
        <time>2010-01-01T01:15:26Z</time>
      </trkpt>
      <trkpt lat="31.79841000" lon="35.07600000">
        <ele>619.00000</ele>
        <time>2010-01-01T01:15:34Z</time>
      </trkpt>
      <trkpt lat="31.79849000" lon="35.07585000">
        <ele>620.00000</ele>
        <time>2010-01-01T01:15:40Z</time>
      </trkpt>
      <trkpt lat="31.79843000" lon="35.07588000">
        <ele>620.00000</ele>
        <time>2010-01-01T01:15:43Z</time>
      </trkpt>
      <trkpt lat="31.79841000" lon="35.07592000">
        <ele>620.00000</ele>
        <time>2010-01-01T01:15:44Z</time>
      </trkpt>
      <trkpt lat="31.79827000" lon="35.07594000">
        <ele>619.00000</ele>
        <time>2010-01-01T01:15:50Z</time>
      </trkpt>
      <trkpt lat="31.79816000" lon="35.07600000">
        <ele>618.00000</ele>
        <time>2010-01-01T01:15:55Z</time>
      </trkpt>
      <trkpt lat="31.79807000" lon="35.07612000">
        <ele>616.00000</ele>
        <time>2010-01-01T01:16:00Z</time>
      </trkpt>
      <trkpt lat="31.79793000" lon="35.07622000">
        <ele>615.00000</ele>
        <time>2010-01-01T01:16:07Z</time>
      </trkpt>
      <trkpt lat="31.79769000" lon="35.07643000">
        <ele>613.00000</ele>
        <time>2010-01-01T01:16:19Z</time>
      </trkpt>
      <trkpt lat="31.79743000" lon="35.07647000">
        <ele>610.00000</ele>
        <time>2010-01-01T01:16:29Z</time>
      </trkpt>
      <trkpt lat="31.79733000" lon="35.07648000">
        <ele>608.00000</ele>
        <time>2010-01-01T01:16:33Z</time>
      </trkpt>
      <trkpt lat="31.79691000" lon="35.07653000">
        <ele>606.00000</ele>
        <time>2010-01-01T01:16:50Z</time>
      </trkpt>
      <trkpt lat="31.79663000" lon="35.07657000">
        <ele>602.00000</ele>
        <time>2010-01-01T01:17:01Z</time>
      </trkpt>
      <trkpt lat="31.79638000" lon="35.07661000">
        <ele>600.00000</ele>
        <time>2010-01-01T01:17:11Z</time>
      </trkpt>
      <trkpt lat="31.79624000" lon="35.07665000">
        <ele>598.00000</ele>
        <time>2010-01-01T01:17:17Z</time>
      </trkpt>
      <trkpt lat="31.79631000" lon="35.07696000">
        <ele>593.00000</ele>
        <time>2010-01-01T01:17:28Z</time>
      </trkpt>
      <trkpt lat="31.79635000" lon="35.07698000">
        <ele>593.00000</ele>
        <time>2010-01-01T01:17:30Z</time>
      </trkpt>
      <trkpt lat="31.79650000" lon="35.07704000">
        <ele>593.00000</ele>
        <time>2010-01-01T01:17:36Z</time>
      </trkpt>
      <trkpt lat="31.79670000" lon="35.07712000">
        <ele>593.00000</ele>
        <time>2010-01-01T01:17:45Z</time>
      </trkpt>
      <trkpt lat="31.79674000" lon="35.07714000">
        <ele>593.00000</ele>
        <time>2010-01-01T01:17:46Z</time>
      </trkpt>
      <trkpt lat="31.79686000" lon="35.07720000">
        <ele>592.00000</ele>
        <time>2010-01-01T01:17:52Z</time>
      </trkpt>
      <trkpt lat="31.79694000" lon="35.07726000">
        <ele>592.00000</ele>
        <time>2010-01-01T01:17:55Z</time>
      </trkpt>
      <trkpt lat="31.79701000" lon="35.07732000">
        <ele>592.00000</ele>
        <time>2010-01-01T01:17:59Z</time>
      </trkpt>
      <trkpt lat="31.79715000" lon="35.07754000">
        <ele>590.00000</ele>
        <time>2010-01-01T01:18:08Z</time>
      </trkpt>
      <trkpt lat="31.79725000" lon="35.07794000">
        <ele>587.00000</ele>
        <time>2010-01-01T01:18:22Z</time>
      </trkpt>
      <trkpt lat="31.79726000" lon="35.07802000">
        <ele>587.00000</ele>
        <time>2010-01-01T01:18:25Z</time>
      </trkpt>
      <trkpt lat="31.79730000" lon="35.07826000">
        <ele>584.00000</ele>
        <time>2010-01-01T01:18:33Z</time>
      </trkpt>
      <trkpt lat="31.79732000" lon="35.07838000">
        <ele>582.00000</ele>
        <time>2010-01-01T01:18:38Z</time>
      </trkpt>
      <trkpt lat="31.79736000" lon="35.07860000">
        <ele>582.00000</ele>
        <time>2010-01-01T01:18:45Z</time>
      </trkpt>
      <trkpt lat="31.79747000" lon="35.07927000">
        <ele>579.00000</ele>
        <time>2010-01-01T01:19:08Z</time>
      </trkpt>
      <trkpt lat="31.79754000" lon="35.07987000">
        <ele>578.00000</ele>
        <time>2010-01-01T01:19:29Z</time>
      </trkpt>
      <trkpt lat="31.79757000" lon="35.08003000">
        <ele>578.00000</ele>
        <time>2010-01-01T01:19:35Z</time>
      </trkpt>
      <trkpt lat="31.79767000" lon="35.08027000">
        <ele>579.00000</ele>
        <time>2010-01-01T01:19:44Z</time>
      </trkpt>
      <trkpt lat="31.79758000" lon="35.08035000">
        <ele>576.00000</ele>
        <time>2010-01-01T01:19:48Z</time>
      </trkpt>
      <trkpt lat="31.79748000" lon="35.08023000">
        <ele>573.00000</ele>
        <time>2010-01-01T01:19:54Z</time>
      </trkpt>
      <trkpt lat="31.79733000" lon="35.07990000">
        <ele>571.00000</ele>
        <time>2010-01-01T01:20:07Z</time>
      </trkpt>
      <trkpt lat="31.79724000" lon="35.07971000">
        <ele>570.00000</ele>
        <time>2010-01-01T01:20:14Z</time>
      </trkpt>
      <trkpt lat="31.79698000" lon="35.07912000">
        <ele>569.00000</ele>
        <time>2010-01-01T01:20:37Z</time>
      </trkpt>
      <trkpt lat="31.79689000" lon="35.07863000">
        <ele>570.00000</ele>
        <time>2010-01-01T01:20:54Z</time>
      </trkpt>
      <trkpt lat="31.79674000" lon="35.07830000">
        <ele>572.00000</ele>
        <time>2010-01-01T01:21:06Z</time>
      </trkpt>
      <trkpt lat="31.79664000" lon="35.07830000">
        <ele>571.00000</ele>
        <time>2010-01-01T01:21:11Z</time>
      </trkpt>
      <trkpt lat="31.79652000" lon="35.07829000">
        <ele>568.00000</ele>
        <time>2010-01-01T01:21:15Z</time>
      </trkpt>
      <trkpt lat="31.79601000" lon="35.07816000">
        <ele>565.00000</ele>
        <time>2010-01-01T01:21:36Z</time>
      </trkpt>
      <trkpt lat="31.79591000" lon="35.07812000">
        <ele>565.00000</ele>
        <time>2010-01-01T01:21:40Z</time>
      </trkpt>
      <trkpt lat="31.79548000" lon="35.07811000">
        <ele>563.00000</ele>
        <time>2010-01-01T01:21:58Z</time>
      </trkpt>
      <trkpt lat="31.79524000" lon="35.07803000">
        <ele>563.00000</ele>
        <time>2010-01-01T01:22:08Z</time>
      </trkpt>
      <trkpt lat="31.79488000" lon="35.07793000">
        <ele>563.00000</ele>
        <time>2010-01-01T01:22:22Z</time>
      </trkpt>
      <trkpt lat="31.79468000" lon="35.07791000">
        <ele>563.00000</ele>
        <time>2010-01-01T01:22:30Z</time>
      </trkpt>
      <trkpt lat="31.79427000" lon="35.07779000">
        <ele>562.00000</ele>
        <time>2010-01-01T01:22:47Z</time>
      </trkpt>
      <trkpt lat="31.79390000" lon="35.07770000">
        <ele>563.00000</ele>
        <time>2010-01-01T01:23:03Z</time>
      </trkpt>
      <trkpt lat="31.79366000" lon="35.07768000">
        <ele>564.00000</ele>
        <time>2010-01-01T01:23:12Z</time>
      </trkpt>
      <trkpt lat="31.79336000" lon="35.07766000">
        <ele>564.00000</ele>
        <time>2010-01-01T01:23:24Z</time>
      </trkpt>
      <trkpt lat="31.79296000" lon="35.07735000">
        <ele>563.00000</ele>
        <time>2010-01-01T01:23:43Z</time>
      </trkpt>
      <trkpt lat="31.79278000" lon="35.07720000">
        <ele>561.00000</ele>
        <time>2010-01-01T01:23:52Z</time>
      </trkpt>
      <trkpt lat="31.79268000" lon="35.07692000">
        <ele>558.00000</ele>
        <time>2010-01-01T01:24:03Z</time>
      </trkpt>
      <trkpt lat="31.79266000" lon="35.07679000">
        <ele>556.00000</ele>
        <time>2010-01-01T01:24:07Z</time>
      </trkpt>
      <trkpt lat="31.79267000" lon="35.07649000">
        <ele>553.00000</ele>
        <time>2010-01-01T01:24:17Z</time>
      </trkpt>
      <trkpt lat="31.79279000" lon="35.07620000">
        <ele>554.00000</ele>
        <time>2010-01-01T01:24:28Z</time>
      </trkpt>
      <trkpt lat="31.79285000" lon="35.07602000">
        <ele>553.00000</ele>
        <time>2010-01-01T01:24:35Z</time>
      </trkpt>
      <trkpt lat="31.79303000" lon="35.07559000">
        <ele>555.00000</ele>
        <time>2010-01-01T01:24:51Z</time>
      </trkpt>
      <trkpt lat="31.79312000" lon="35.07529000">
        <ele>556.00000</ele>
        <time>2010-01-01T01:25:02Z</time>
      </trkpt>
      <trkpt lat="31.79308000" lon="35.07499000">
        <ele>554.00000</ele>
        <time>2010-01-01T01:25:12Z</time>
      </trkpt>
      <trkpt lat="31.79288000" lon="35.07475000">
        <ele>549.00000</ele>
        <time>2010-01-01T01:25:24Z</time>
      </trkpt>
      <trkpt lat="31.79273000" lon="35.07447000">
        <ele>546.00000</ele>
        <time>2010-01-01T01:25:35Z</time>
      </trkpt>
      <trkpt lat="31.79261000" lon="35.07428000">
        <ele>545.00000</ele>
        <time>2010-01-01T01:25:43Z</time>
      </trkpt>
      <trkpt lat="31.79241000" lon="35.07398000">
        <ele>543.00000</ele>
        <time>2010-01-01T01:25:56Z</time>
      </trkpt>
      <trkpt lat="31.79219000" lon="35.07373000">
        <ele>538.00000</ele>
        <time>2010-01-01T01:26:08Z</time>
      </trkpt>
      <trkpt lat="31.79162000" lon="35.07316000">
        <ele>537.00000</ele>
        <time>2010-01-01T01:26:38Z</time>
      </trkpt>
      <trkpt lat="31.79159000" lon="35.07313000">
        <ele>536.00000</ele>
        <time>2010-01-01T01:26:40Z</time>
      </trkpt>
      <trkpt lat="31.79128000" lon="35.07263000">
        <ele>540.00000</ele>
        <time>2010-01-01T01:27:01Z</time>
      </trkpt>
      <trkpt lat="31.79111000" lon="35.07231000">
        <ele>541.00000</ele>
        <time>2010-01-01T01:27:14Z</time>
      </trkpt>
      <trkpt lat="31.79092000" lon="35.07203000">
        <ele>544.00000</ele>
        <time>2010-01-01T01:27:26Z</time>
      </trkpt>
      <trkpt lat="31.79069000" lon="35.07168000">
        <ele>546.00000</ele>
        <time>2010-01-01T01:27:41Z</time>
      </trkpt>
      <trkpt lat="31.79053000" lon="35.07138000">
        <ele>544.00000</ele>
        <time>2010-01-01T01:27:53Z</time>
      </trkpt>
      <trkpt lat="31.79051000" lon="35.07133000">
        <ele>544.00000</ele>
        <time>2010-01-01T01:27:55Z</time>
      </trkpt>
      <trkpt lat="31.79050000" lon="35.07121000">
        <ele>544.00000</ele>
        <time>2010-01-01T01:27:59Z</time>
      </trkpt>
      <trkpt lat="31.79048000" lon="35.07092000">
        <ele>544.00000</ele>
        <time>2010-01-01T01:28:09Z</time>
      </trkpt>
      <trkpt lat="31.79052000" lon="35.07050000">
        <ele>547.00000</ele>
        <time>2010-01-01T01:28:23Z</time>
      </trkpt>
      <trkpt lat="31.79048000" lon="35.07000000">
        <ele>550.00000</ele>
        <time>2010-01-01T01:28:40Z</time>
      </trkpt>
      <trkpt lat="31.79031000" lon="35.06956000">
        <ele>557.00000</ele>
        <time>2010-01-01T01:28:57Z</time>
      </trkpt>
      <trkpt lat="31.79001000" lon="35.06919000">
        <ele>553.00000</ele>
        <time>2010-01-01T01:29:14Z</time>
      </trkpt>
      <trkpt lat="31.78967000" lon="35.06880000">
        <ele>557.00000</ele>
        <time>2010-01-01T01:29:33Z</time>
      </trkpt>
      <trkpt lat="31.78939000" lon="35.06853000">
        <ele>558.00000</ele>
        <time>2010-01-01T01:29:48Z</time>
      </trkpt>
      <trkpt lat="31.78913000" lon="35.06814000">
        <ele>560.00000</ele>
        <time>2010-01-01T01:30:04Z</time>
      </trkpt>
      <trkpt lat="31.78913000" lon="35.06774000">
        <ele>561.00000</ele>
        <time>2010-01-01T01:30:18Z</time>
      </trkpt>
      <trkpt lat="31.78927000" lon="35.06751000">
        <ele>563.00000</ele>
        <time>2010-01-01T01:30:28Z</time>
      </trkpt>
      <trkpt lat="31.78941000" lon="35.06721000">
        <ele>564.00000</ele>
        <time>2010-01-01T01:30:39Z</time>
      </trkpt>
      <trkpt lat="31.78959000" lon="35.06691000">
        <ele>570.00000</ele>
        <time>2010-01-01T01:30:52Z</time>
      </trkpt>
      <trkpt lat="31.78972000" lon="35.06656000">
        <ele>573.00000</ele>
        <time>2010-01-01T01:31:05Z</time>
      </trkpt>
      <trkpt lat="31.78981000" lon="35.06631000">
        <ele>574.00000</ele>
        <time>2010-01-01T01:31:14Z</time>
      </trkpt>
      <trkpt lat="31.78987000" lon="35.06620000">
        <ele>576.00000</ele>
        <time>2010-01-01T01:31:19Z</time>
      </trkpt>
      <trkpt lat="31.78996000" lon="35.06589000">
        <ele>578.00000</ele>
        <time>2010-01-01T01:31:30Z</time>
      </trkpt>
      <trkpt lat="31.78998000" lon="35.06555000">
        <ele>576.00000</ele>
        <time>2010-01-01T01:31:41Z</time>
      </trkpt>
      <trkpt lat="31.79001000" lon="35.06507000">
        <ele>580.00000</ele>
        <time>2010-01-01T01:31:58Z</time>
      </trkpt>
      <trkpt lat="31.78998000" lon="35.06460000">
        <ele>577.00000</ele>
        <time>2010-01-01T01:32:14Z</time>
      </trkpt>
      <trkpt lat="31.79001000" lon="35.06408000">
        <ele>580.00000</ele>
        <time>2010-01-01T01:32:31Z</time>
      </trkpt>
      <trkpt lat="31.79014000" lon="35.06365000">
        <ele>583.00000</ele>
        <time>2010-01-01T01:32:47Z</time>
      </trkpt>
      <trkpt lat="31.79022000" lon="35.06321000">
        <ele>585.00000</ele>
        <time>2010-01-01T01:33:02Z</time>
      </trkpt>
      <trkpt lat="31.79016000" lon="35.06269000">
        <ele>585.00000</ele>
        <time>2010-01-01T01:33:20Z</time>
      </trkpt>
      <trkpt lat="31.79001000" lon="35.06216000">
        <ele>587.00000</ele>
        <time>2010-01-01T01:33:39Z</time>
      </trkpt>
      <trkpt lat="31.78990000" lon="35.06160000">
        <ele>586.00000</ele>
        <time>2010-01-01T01:33:59Z</time>
      </trkpt>
      <trkpt lat="31.78988000" lon="35.06110000">
        <ele>589.00000</ele>
        <time>2010-01-01T01:34:16Z</time>
      </trkpt>
      <trkpt lat="31.78979000" lon="35.06058000">
        <ele>594.00000</ele>
        <time>2010-01-01T01:34:34Z</time>
      </trkpt>
      <trkpt lat="31.78956000" lon="35.05996000">
        <ele>599.00000</ele>
        <time>2010-01-01T01:34:57Z</time>
      </trkpt>
      <trkpt lat="31.78920000" lon="35.05957000">
        <ele>594.00000</ele>
        <time>2010-01-01T01:35:16Z</time>
      </trkpt>
      <trkpt lat="31.78883000" lon="35.05918000">
        <ele>591.00000</ele>
        <time>2010-01-01T01:35:36Z</time>
      </trkpt>
      <trkpt lat="31.78873000" lon="35.05906000">
        <ele>591.00000</ele>
        <time>2010-01-01T01:35:42Z</time>
      </trkpt>
      <trkpt lat="31.78850000" lon="35.05851000">
        <ele>589.00000</ele>
        <time>2010-01-01T01:36:03Z</time>
      </trkpt>
      <trkpt lat="31.78837000" lon="35.05813000">
        <ele>586.00000</ele>
        <time>2010-01-01T01:36:17Z</time>
      </trkpt>
      <trkpt lat="31.78830000" lon="35.05783000">
        <ele>583.00000</ele>
        <time>2010-01-01T01:36:27Z</time>
      </trkpt>
      <trkpt lat="31.78822000" lon="35.05747000">
        <ele>579.00000</ele>
        <time>2010-01-01T01:36:40Z</time>
      </trkpt>
      <trkpt lat="31.78820000" lon="35.05691000">
        <ele>583.00000</ele>
        <time>2010-01-01T01:36:59Z</time>
      </trkpt>
      <trkpt lat="31.78819000" lon="35.05651000">
        <ele>579.00000</ele>
        <time>2010-01-01T01:37:13Z</time>
      </trkpt>
      <trkpt lat="31.78835000" lon="35.05598000">
        <ele>576.00000</ele>
        <time>2010-01-01T01:37:32Z</time>
      </trkpt>
      <trkpt lat="31.78838000" lon="35.05572000">
        <ele>573.00000</ele>
        <time>2010-01-01T01:37:41Z</time>
      </trkpt>
      <trkpt lat="31.78849000" lon="35.05535000">
        <ele>569.00000</ele>
        <time>2010-01-01T01:37:54Z</time>
      </trkpt>
      <trkpt lat="31.78854000" lon="35.05532000">
        <ele>569.00000</ele>
        <time>2010-01-01T01:37:56Z</time>
      </trkpt>
      <trkpt lat="31.78868000" lon="35.05524000">
        <ele>569.00000</ele>
        <time>2010-01-01T01:38:03Z</time>
      </trkpt>
      <trkpt lat="31.78883000" lon="35.05521000">
        <ele>570.00000</ele>
        <time>2010-01-01T01:38:09Z</time>
      </trkpt>
      <trkpt lat="31.78906000" lon="35.05521000">
        <ele>572.00000</ele>
        <time>2010-01-01T01:38:18Z</time>
      </trkpt>
      <trkpt lat="31.78970000" lon="35.05537000">
        <ele>572.00000</ele>
        <time>2010-01-01T01:38:44Z</time>
      </trkpt>
      <trkpt lat="31.79026000" lon="35.05543000">
        <ele>577.00000</ele>
        <time>2010-01-01T01:39:07Z</time>
      </trkpt>
      <trkpt lat="31.79031000" lon="35.05537000">
        <ele>576.00000</ele>
        <time>2010-01-01T01:39:09Z</time>
      </trkpt>
      <trkpt lat="31.79028000" lon="35.05523000">
        <ele>575.00000</ele>
        <time>2010-01-01T01:39:14Z</time>
      </trkpt>
      <trkpt lat="31.79002000" lon="35.05489000">
        <ele>570.00000</ele>
        <time>2010-01-01T01:39:30Z</time>
      </trkpt>
      <trkpt lat="31.78964000" lon="35.05428000">
        <ele>570.00000</ele>
        <time>2010-01-01T01:39:56Z</time>
      </trkpt>
      <trkpt lat="31.78924000" lon="35.05350000">
        <ele>563.00000</ele>
        <time>2010-01-01T01:40:27Z</time>
      </trkpt>
      <trkpt lat="31.78918000" lon="35.05323000">
        <ele>560.00000</ele>
        <time>2010-01-01T01:40:36Z</time>
      </trkpt>
      <trkpt lat="31.78939000" lon="35.05270000">
        <ele>560.00000</ele>
        <time>2010-01-01T01:40:56Z</time>
      </trkpt>
      <trkpt lat="31.78943000" lon="35.05267000">
        <ele>560.00000</ele>
        <time>2010-01-01T01:40:58Z</time>
      </trkpt>
      <trkpt lat="31.79002000" lon="35.05242000">
        <ele>559.00000</ele>
        <time>2010-01-01T01:41:23Z</time>
      </trkpt>
      <trkpt lat="31.79020000" lon="35.05235000">
        <ele>561.00000</ele>
        <time>2010-01-01T01:41:31Z</time>
      </trkpt>
      <trkpt lat="31.79037000" lon="35.05228000">
        <ele>563.00000</ele>
        <time>2010-01-01T01:41:38Z</time>
      </trkpt>
      <trkpt lat="31.79062000" lon="35.05198000">
        <ele>566.00000</ele>
        <time>2010-01-01T01:41:52Z</time>
      </trkpt>
      <trkpt lat="31.79053000" lon="35.05183000">
        <ele>564.00000</ele>
        <time>2010-01-01T01:41:58Z</time>
      </trkpt>
      <trkpt lat="31.79030000" lon="35.05132000">
        <ele>565.00000</ele>
        <time>2010-01-01T01:42:18Z</time>
      </trkpt>
      <trkpt lat="31.79023000" lon="35.05113000">
        <ele>565.00000</ele>
        <time>2010-01-01T01:42:25Z</time>
      </trkpt>
      <trkpt lat="31.78981000" lon="35.05084000">
        <ele>562.00000</ele>
        <time>2010-01-01T01:42:45Z</time>
      </trkpt>
      <trkpt lat="31.78976000" lon="35.05083000">
        <ele>561.00000</ele>
        <time>2010-01-01T01:42:47Z</time>
      </trkpt>
      <trkpt lat="31.78938000" lon="35.05070000">
        <ele>556.00000</ele>
        <time>2010-01-01T01:43:02Z</time>
      </trkpt>
      <trkpt lat="31.78917000" lon="35.05050000">
        <ele>555.00000</ele>
        <time>2010-01-01T01:43:13Z</time>
      </trkpt>
      <trkpt lat="31.78896000" lon="35.04998000">
        <ele>560.00000</ele>
        <time>2010-01-01T01:43:33Z</time>
      </trkpt>
      <trkpt lat="31.78894000" lon="35.04980000">
        <ele>559.00000</ele>
        <time>2010-01-01T01:43:39Z</time>
      </trkpt>
      <trkpt lat="31.78913000" lon="35.04906000">
        <ele>557.00000</ele>
        <time>2010-01-01T01:44:05Z</time>
      </trkpt>
      <trkpt lat="31.78919000" lon="35.04890000">
        <ele>555.00000</ele>
        <time>2010-01-01T01:44:11Z</time>
      </trkpt>
      <trkpt lat="31.78933000" lon="35.04861000">
        <ele>555.00000</ele>
        <time>2010-01-01T01:44:23Z</time>
      </trkpt>
      <trkpt lat="31.78949000" lon="35.04819000">
        <ele>559.00000</ele>
        <time>2010-01-01T01:44:38Z</time>
      </trkpt>
      <trkpt lat="31.78954000" lon="35.04802000">
        <ele>560.00000</ele>
        <time>2010-01-01T01:44:44Z</time>
      </trkpt>
      <trkpt lat="31.78948000" lon="35.04766000">
        <ele>558.00000</ele>
        <time>2010-01-01T01:44:57Z</time>
      </trkpt>
      <trkpt lat="31.78943000" lon="35.04754000">
        <ele>557.00000</ele>
        <time>2010-01-01T01:45:01Z</time>
      </trkpt>
      <trkpt lat="31.78904000" lon="35.04705000">
        <ele>558.00000</ele>
        <time>2010-01-01T01:45:24Z</time>
      </trkpt>
      <trkpt lat="31.78846000" lon="35.04650000">
        <ele>557.00000</ele>
        <time>2010-01-01T01:45:54Z</time>
      </trkpt>
      <trkpt lat="31.78849000" lon="35.04611000">
        <ele>557.00000</ele>
        <time>2010-01-01T01:46:07Z</time>
      </trkpt>
      <trkpt lat="31.78867000" lon="35.04572000">
        <ele>555.00000</ele>
        <time>2010-01-01T01:46:23Z</time>
      </trkpt>
      <trkpt lat="31.78895000" lon="35.04539000">
        <ele>555.00000</ele>
        <time>2010-01-01T01:46:38Z</time>
      </trkpt>
      <trkpt lat="31.78924000" lon="35.04491000">
        <ele>557.00000</ele>
        <time>2010-01-01T01:46:58Z</time>
      </trkpt>
      <trkpt lat="31.78942000" lon="35.04416000">
        <ele>549.00000</ele>
        <time>2010-01-01T01:47:25Z</time>
      </trkpt>
      <trkpt lat="31.78947000" lon="35.04399000">
        <ele>551.00000</ele>
        <time>2010-01-01T01:47:31Z</time>
      </trkpt>
      <trkpt lat="31.78960000" lon="35.04366000">
        <ele>554.00000</ele>
        <time>2010-01-01T01:47:43Z</time>
      </trkpt>
      <trkpt lat="31.78963000" lon="35.04356000">
        <ele>555.00000</ele>
        <time>2010-01-01T01:47:47Z</time>
      </trkpt>
      <trkpt lat="31.78950000" lon="35.04325000">
        <ele>554.00000</ele>
        <time>2010-01-01T01:47:59Z</time>
      </trkpt>
      <trkpt lat="31.78938000" lon="35.04312000">
        <ele>555.00000</ele>
        <time>2010-01-01T01:48:05Z</time>
      </trkpt>
      <trkpt lat="31.78898000" lon="35.04290000">
        <ele>554.00000</ele>
        <time>2010-01-01T01:48:23Z</time>
      </trkpt>
      <trkpt lat="31.78864000" lon="35.04276000">
        <ele>552.00000</ele>
        <time>2010-01-01T01:48:37Z</time>
      </trkpt>
      <trkpt lat="31.78848000" lon="35.04267000">
        <ele>549.00000</ele>
        <time>2010-01-01T01:48:45Z</time>
      </trkpt>
      <trkpt lat="31.78812000" lon="35.04238000">
        <ele>545.00000</ele>
        <time>2010-01-01T01:49:02Z</time>
      </trkpt>
      <trkpt lat="31.78804000" lon="35.04229000">
        <ele>544.00000</ele>
        <time>2010-01-01T01:49:06Z</time>
      </trkpt>
      <trkpt lat="31.78788000" lon="35.04202000">
        <ele>542.00000</ele>
        <time>2010-01-01T01:49:18Z</time>
      </trkpt>
      <trkpt lat="31.78781000" lon="35.04177000">
        <ele>542.00000</ele>
        <time>2010-01-01T01:49:27Z</time>
      </trkpt>
      <trkpt lat="31.78775000" lon="35.04105000">
        <ele>541.00000</ele>
        <time>2010-01-01T01:49:51Z</time>
      </trkpt>
      <trkpt lat="31.78757000" lon="35.03993000">
        <ele>538.00000</ele>
        <time>2010-01-01T01:50:30Z</time>
      </trkpt>
      <trkpt lat="31.78751000" lon="35.03968000">
        <ele>538.00000</ele>
        <time>2010-01-01T01:50:39Z</time>
      </trkpt>
      <trkpt lat="31.78736000" lon="35.03931000">
        <ele>537.00000</ele>
        <time>2010-01-01T01:50:53Z</time>
      </trkpt>
      <trkpt lat="31.78736000" lon="35.03930000">
        <ele>537.00000</ele>
        <time>2010-01-01T01:50:53Z</time>
      </trkpt>
      <trkpt lat="31.78727000" lon="35.03916000">
        <ele>536.00000</ele>
        <time>2010-01-01T01:50:59Z</time>
      </trkpt>
      <trkpt lat="31.78672000" lon="35.03848000">
        <ele>535.00000</ele>
        <time>2010-01-01T01:51:31Z</time>
      </trkpt>
      <trkpt lat="31.78655000" lon="35.03833000">
        <ele>534.00000</ele>
        <time>2010-01-01T01:51:40Z</time>
      </trkpt>
      <trkpt lat="31.78604000" lon="35.03799000">
        <ele>532.00000</ele>
        <time>2010-01-01T01:52:03Z</time>
      </trkpt>
      <trkpt lat="31.78543000" lon="35.03763000">
        <ele>536.00000</ele>
        <time>2010-01-01T01:52:30Z</time>
      </trkpt>
      <trkpt lat="31.78509000" lon="35.03748000">
        <ele>535.00000</ele>
        <time>2010-01-01T01:52:45Z</time>
      </trkpt>
      <trkpt lat="31.78481000" lon="35.03742000">
        <ele>533.00000</ele>
        <time>2010-01-01T01:52:56Z</time>
      </trkpt>
      <trkpt lat="31.78459000" lon="35.03740000">
        <ele>533.00000</ele>
        <time>2010-01-01T01:53:05Z</time>
      </trkpt>
      <trkpt lat="31.78383000" lon="35.03739000">
        <ele>534.00000</ele>
        <time>2010-01-01T01:53:35Z</time>
      </trkpt>
      <trkpt lat="31.78373000" lon="35.03737000">
        <ele>532.00000</ele>
        <time>2010-01-01T01:53:40Z</time>
      </trkpt>
      <trkpt lat="31.78343000" lon="35.03721000">
        <ele>532.00000</ele>
        <time>2010-01-01T01:53:53Z</time>
      </trkpt>
      <trkpt lat="31.78291000" lon="35.03676000">
        <ele>527.00000</ele>
        <time>2010-01-01T01:54:19Z</time>
      </trkpt>
      <trkpt lat="31.78285000" lon="35.03665000">
        <ele>527.00000</ele>
        <time>2010-01-01T01:54:23Z</time>
      </trkpt>
      <trkpt lat="31.78283000" lon="35.03657000">
        <ele>526.00000</ele>
        <time>2010-01-01T01:54:26Z</time>
      </trkpt>
      <trkpt lat="31.78288000" lon="35.03639000">
        <ele>528.00000</ele>
        <time>2010-01-01T01:54:32Z</time>
      </trkpt>
      <trkpt lat="31.78291000" lon="35.03614000">
        <ele>525.00000</ele>
        <time>2010-01-01T01:54:41Z</time>
      </trkpt>
      <trkpt lat="31.78304000" lon="35.03573000">
        <ele>526.00000</ele>
        <time>2010-01-01T01:54:56Z</time>
      </trkpt>
      <trkpt lat="31.78313000" lon="35.03531000">
        <ele>530.00000</ele>
        <time>2010-01-01T01:55:11Z</time>
      </trkpt>
      <trkpt lat="31.78314000" lon="35.03519000">
        <ele>530.00000</ele>
        <time>2010-01-01T01:55:15Z</time>
      </trkpt>
      <trkpt lat="31.78313000" lon="35.03503000">
        <ele>529.00000</ele>
        <time>2010-01-01T01:55:20Z</time>
      </trkpt>
      <trkpt lat="31.78305000" lon="35.03477000">
        <ele>526.00000</ele>
        <time>2010-01-01T01:55:30Z</time>
      </trkpt>
      <trkpt lat="31.78288000" lon="35.03435000">
        <ele>522.00000</ele>
        <time>2010-01-01T01:55:45Z</time>
      </trkpt>
      <trkpt lat="31.78266000" lon="35.03362000">
        <ele>520.00000</ele>
        <time>2010-01-01T01:56:12Z</time>
      </trkpt>
      <trkpt lat="31.78260000" lon="35.03348000">
        <ele>521.00000</ele>
        <time>2010-01-01T01:56:17Z</time>
      </trkpt>
      <trkpt lat="31.78252000" lon="35.03335000">
        <ele>522.00000</ele>
        <time>2010-01-01T01:56:22Z</time>
      </trkpt>
      <trkpt lat="31.78229000" lon="35.03312000">
        <ele>518.00000</ele>
        <time>2010-01-01T01:56:35Z</time>
      </trkpt>
      <trkpt lat="31.78163000" lon="35.03260000">
        <ele>507.00000</ele>
        <time>2010-01-01T01:57:06Z</time>
      </trkpt>
      <trkpt lat="31.78154000" lon="35.03252000">
        <ele>506.00000</ele>
        <time>2010-01-01T01:57:11Z</time>
      </trkpt>
      <trkpt lat="31.78150000" lon="35.03244000">
        <ele>506.00000</ele>
        <time>2010-01-01T01:57:14Z</time>
      </trkpt>
      <trkpt lat="31.78146000" lon="35.03234000">
        <ele>506.00000</ele>
        <time>2010-01-01T01:57:18Z</time>
      </trkpt>
      <trkpt lat="31.78143000" lon="35.03220000">
        <ele>507.00000</ele>
        <time>2010-01-01T01:57:23Z</time>
      </trkpt>
      <trkpt lat="31.78140000" lon="35.03162000">
        <ele>506.00000</ele>
        <time>2010-01-01T01:57:42Z</time>
      </trkpt>
      <trkpt lat="31.78136000" lon="35.03127000">
        <ele>499.00000</ele>
        <time>2010-01-01T01:57:54Z</time>
      </trkpt>
      <trkpt lat="31.78137000" lon="35.03118000">
        <ele>498.00000</ele>
        <time>2010-01-01T01:57:58Z</time>
      </trkpt>
      <trkpt lat="31.78140000" lon="35.03111000">
        <ele>497.00000</ele>
        <time>2010-01-01T01:58:00Z</time>
      </trkpt>
      <trkpt lat="31.78146000" lon="35.03104000">
        <ele>496.00000</ele>
        <time>2010-01-01T01:58:04Z</time>
      </trkpt>
      <trkpt lat="31.78151000" lon="35.03102000">
        <ele>497.00000</ele>
        <time>2010-01-01T01:58:06Z</time>
      </trkpt>
      <trkpt lat="31.78158000" lon="35.03101000">
        <ele>498.00000</ele>
        <time>2010-01-01T01:58:09Z</time>
      </trkpt>
      <trkpt lat="31.78186000" lon="35.03106000">
        <ele>500.00000</ele>
        <time>2010-01-01T01:58:20Z</time>
      </trkpt>
      <trkpt lat="31.78211000" lon="35.03106000">
        <ele>502.00000</ele>
        <time>2010-01-01T01:58:30Z</time>
      </trkpt>
      <trkpt lat="31.78234000" lon="35.03103000">
        <ele>503.00000</ele>
        <time>2010-01-01T01:58:39Z</time>
      </trkpt>
      <trkpt lat="31.78254000" lon="35.03095000">
        <ele>505.00000</ele>
        <time>2010-01-01T01:58:48Z</time>
      </trkpt>
      <trkpt lat="31.78266000" lon="35.03084000">
        <ele>506.00000</ele>
        <time>2010-01-01T01:58:54Z</time>
      </trkpt>
      <trkpt lat="31.78271000" lon="35.03078000">
        <ele>507.00000</ele>
        <time>2010-01-01T01:58:57Z</time>
      </trkpt>
      <trkpt lat="31.78278000" lon="35.03062000">
        <ele>507.00000</ele>
        <time>2010-01-01T01:59:03Z</time>
      </trkpt>
      <trkpt lat="31.78281000" lon="35.03050000">
        <ele>506.00000</ele>
        <time>2010-01-01T01:59:07Z</time>
      </trkpt>
      <trkpt lat="31.78285000" lon="35.03023000">
        <ele>506.00000</ele>
        <time>2010-01-01T01:59:16Z</time>
      </trkpt>
      <trkpt lat="31.78281000" lon="35.02987000">
        <ele>503.00000</ele>
        <time>2010-01-01T01:59:29Z</time>
      </trkpt>
      <trkpt lat="31.78266000" lon="35.02905000">
        <ele>494.00000</ele>
        <time>2010-01-01T01:59:57Z</time>
      </trkpt>
      <trkpt lat="31.78268000" lon="35.02888000">
        <ele>493.00000</ele>
        <time>2010-01-01T02:00:03Z</time>
      </trkpt>
      <trkpt lat="31.78275000" lon="35.02877000">
        <ele>494.00000</ele>
        <time>2010-01-01T02:00:08Z</time>
      </trkpt>
      <trkpt lat="31.78318000" lon="35.02827000">
        <ele>489.00000</ele>
        <time>2010-01-01T02:00:32Z</time>
      </trkpt>
      <trkpt lat="31.78323000" lon="35.02822000">
        <ele>488.00000</ele>
        <time>2010-01-01T02:00:35Z</time>
      </trkpt>
      <trkpt lat="31.78332000" lon="35.02818000">
        <ele>488.00000</ele>
        <time>2010-01-01T02:00:38Z</time>
      </trkpt>
      <trkpt lat="31.78339000" lon="35.02819000">
        <ele>488.00000</ele>
        <time>2010-01-01T02:00:41Z</time>
      </trkpt>
      <trkpt lat="31.78355000" lon="35.02828000">
        <ele>488.00000</ele>
        <time>2010-01-01T02:00:48Z</time>
      </trkpt>
      <trkpt lat="31.78385000" lon="35.02849000">
        <ele>486.00000</ele>
        <time>2010-01-01T02:01:02Z</time>
      </trkpt>
      <trkpt lat="31.78414000" lon="35.02855000">
        <ele>480.00000</ele>
        <time>2010-01-01T02:01:14Z</time>
      </trkpt>
      <trkpt lat="31.78422000" lon="35.02859000">
        <ele>480.00000</ele>
        <time>2010-01-01T02:01:18Z</time>
      </trkpt>
      <trkpt lat="31.78432000" lon="35.02867000">
        <ele>479.00000</ele>
        <time>2010-01-01T02:01:22Z</time>
      </trkpt>
      <trkpt lat="31.78464000" lon="35.02904000">
        <ele>482.00000</ele>
        <time>2010-01-01T02:01:40Z</time>
      </trkpt>
      <trkpt lat="31.78478000" lon="35.02913000">
        <ele>481.00000</ele>
        <time>2010-01-01T02:01:47Z</time>
      </trkpt>
      <trkpt lat="31.78485000" lon="35.02914000">
        <ele>481.00000</ele>
        <time>2010-01-01T02:01:50Z</time>
      </trkpt>
      <trkpt lat="31.78501000" lon="35.02912000">
        <ele>479.00000</ele>
        <time>2010-01-01T02:01:56Z</time>
      </trkpt>
      <trkpt lat="31.78517000" lon="35.02905000">
        <ele>477.00000</ele>
        <time>2010-01-01T02:02:03Z</time>
      </trkpt>
      <trkpt lat="31.78562000" lon="35.02881000">
        <ele>471.00000</ele>
        <time>2010-01-01T02:02:23Z</time>
      </trkpt>
      <trkpt lat="31.78575000" lon="35.02876000">
        <ele>469.00000</ele>
        <time>2010-01-01T02:02:28Z</time>
      </trkpt>
      <trkpt lat="31.78639000" lon="35.02876000">
        <ele>467.00000</ele>
        <time>2010-01-01T02:02:54Z</time>
      </trkpt>
      <trkpt lat="31.78650000" lon="35.02877000">
        <ele>466.00000</ele>
        <time>2010-01-01T02:02:58Z</time>
      </trkpt>
      <trkpt lat="31.78665000" lon="35.02883000">
        <ele>466.00000</ele>
        <time>2010-01-01T02:03:04Z</time>
      </trkpt>
      <trkpt lat="31.78739000" lon="35.02935000">
        <ele>464.00000</ele>
        <time>2010-01-01T02:03:39Z</time>
      </trkpt>
      <trkpt lat="31.78783000" lon="35.02960000">
        <ele>459.00000</ele>
        <time>2010-01-01T02:03:59Z</time>
      </trkpt>
      <trkpt lat="31.78782000" lon="35.02960000">
        <ele>460.00000</ele>
        <time>2010-01-01T02:03:59Z</time>
      </trkpt>
      <trkpt lat="31.78800000" lon="35.02970000">
        <ele>458.00000</ele>
        <time>2010-01-01T02:04:07Z</time>
      </trkpt>
      <trkpt lat="31.78839000" lon="35.03003000">
        <ele>458.00000</ele>
        <time>2010-01-01T02:04:26Z</time>
      </trkpt>
      <trkpt lat="31.78858000" lon="35.03025000">
        <ele>458.00000</ele>
        <time>2010-01-01T02:04:37Z</time>
      </trkpt>
      <trkpt lat="31.78878000" lon="35.03054000">
        <ele>461.00000</ele>
        <time>2010-01-01T02:04:50Z</time>
      </trkpt>
      <trkpt lat="31.78882000" lon="35.03057000">
        <ele>460.00000</ele>
        <time>2010-01-01T02:04:51Z</time>
      </trkpt>
      <trkpt lat="31.78891000" lon="35.03056000">
        <ele>460.00000</ele>
        <time>2010-01-01T02:04:55Z</time>
      </trkpt>
      <trkpt lat="31.78896000" lon="35.03050000">
        <ele>460.00000</ele>
        <time>2010-01-01T02:04:58Z</time>
      </trkpt>
      <trkpt lat="31.78900000" lon="35.03037000">
        <ele>461.00000</ele>
        <time>2010-01-01T02:05:03Z</time>
      </trkpt>
      <trkpt lat="31.78903000" lon="35.03005000">
        <ele>461.00000</ele>
        <time>2010-01-01T02:05:14Z</time>
      </trkpt>
      <trkpt lat="31.78902000" lon="35.02997000">
        <ele>461.00000</ele>
        <time>2010-01-01T02:05:16Z</time>
      </trkpt>
      <trkpt lat="31.78889000" lon="35.02947000">
        <ele>458.00000</ele>
        <time>2010-01-01T02:05:34Z</time>
      </trkpt>
      <trkpt lat="31.78856000" lon="35.02867000">
        <ele>457.00000</ele>
        <time>2010-01-01T02:06:04Z</time>
      </trkpt>
      <trkpt lat="31.78773000" lon="35.02757000">
        <ele>451.00000</ele>
        <time>2010-01-01T02:06:54Z</time>
      </trkpt>
      <trkpt lat="31.78708000" lon="35.02698000">
        <ele>445.00000</ele>
        <time>2010-01-01T02:07:27Z</time>
      </trkpt>
      <trkpt lat="31.78689000" lon="35.02683000">
        <ele>442.00000</ele>
        <time>2010-01-01T02:07:36Z</time>
      </trkpt>
      <trkpt lat="31.78665000" lon="35.02658000">
        <ele>440.00000</ele>
        <time>2010-01-01T02:07:49Z</time>
      </trkpt>
      <trkpt lat="31.78617000" lon="35.02618000">
        <ele>438.00000</ele>
        <time>2010-01-01T02:08:13Z</time>
      </trkpt>
      <trkpt lat="31.78595000" lon="35.02601000">
        <ele>437.00000</ele>
        <time>2010-01-01T02:08:23Z</time>
      </trkpt>
      <trkpt lat="31.78581000" lon="35.02586000">
        <ele>436.00000</ele>
        <time>2010-01-01T02:08:31Z</time>
      </trkpt>
      <trkpt lat="31.78574000" lon="35.02572000">
        <ele>435.00000</ele>
        <time>2010-01-01T02:08:36Z</time>
      </trkpt>
      <trkpt lat="31.78568000" lon="35.02555000">
        <ele>434.00000</ele>
        <time>2010-01-01T02:08:43Z</time>
      </trkpt>
      <trkpt lat="31.78560000" lon="35.02523000">
        <ele>436.00000</ele>
        <time>2010-01-01T02:08:54Z</time>
      </trkpt>
      <trkpt lat="31.78541000" lon="35.02426000">
        <ele>434.00000</ele>
        <time>2010-01-01T02:09:28Z</time>
      </trkpt>
      <trkpt lat="31.78535000" lon="35.02399000">
        <ele>434.00000</ele>
        <time>2010-01-01T02:09:37Z</time>
      </trkpt>
      <trkpt lat="31.78527000" lon="35.02380000">
        <ele>433.00000</ele>
        <time>2010-01-01T02:09:45Z</time>
      </trkpt>
      <trkpt lat="31.78517000" lon="35.02362000">
        <ele>432.00000</ele>
        <time>2010-01-01T02:09:52Z</time>
      </trkpt>
      <trkpt lat="31.78505000" lon="35.02346000">
        <ele>432.00000</ele>
        <time>2010-01-01T02:09:59Z</time>
      </trkpt>
      <trkpt lat="31.78440000" lon="35.02282000">
        <ele>430.00000</ele>
        <time>2010-01-01T02:10:33Z</time>
      </trkpt>
      <trkpt lat="31.78425000" lon="35.02262000">
        <ele>428.00000</ele>
        <time>2010-01-01T02:10:42Z</time>
      </trkpt>
      <trkpt lat="31.78422000" lon="35.02254000">
        <ele>429.00000</ele>
        <time>2010-01-01T02:10:45Z</time>
      </trkpt>
      <trkpt lat="31.78424000" lon="35.02244000">
        <ele>430.00000</ele>
        <time>2010-01-01T02:10:49Z</time>
      </trkpt>
      <trkpt lat="31.78434000" lon="35.02230000">
        <ele>431.00000</ele>
        <time>2010-01-01T02:10:55Z</time>
      </trkpt>
      <trkpt lat="31.78458000" lon="35.02202000">
        <ele>431.00000</ele>
        <time>2010-01-01T02:11:08Z</time>
      </trkpt>
      <trkpt lat="31.78473000" lon="35.02191000">
        <ele>431.00000</ele>
        <time>2010-01-01T02:11:16Z</time>
      </trkpt>
      <trkpt lat="31.78496000" lon="35.02181000">
        <ele>431.00000</ele>
        <time>2010-01-01T02:11:25Z</time>
      </trkpt>
      <trkpt lat="31.78530000" lon="35.02169000">
        <ele>434.00000</ele>
        <time>2010-01-01T02:11:40Z</time>
      </trkpt>
      <trkpt lat="31.78549000" lon="35.02158000">
        <ele>434.00000</ele>
        <time>2010-01-01T02:11:48Z</time>
      </trkpt>
      <trkpt lat="31.78574000" lon="35.02146000">
        <ele>433.00000</ele>
        <time>2010-01-01T02:11:59Z</time>
      </trkpt>
      <trkpt lat="31.78604000" lon="35.02120000">
        <ele>432.00000</ele>
        <time>2010-01-01T02:12:14Z</time>
      </trkpt>
      <trkpt lat="31.78622000" lon="35.02101000">
        <ele>431.00000</ele>
        <time>2010-01-01T02:12:23Z</time>
      </trkpt>
      <trkpt lat="31.78643000" lon="35.02071000">
        <ele>426.00000</ele>
        <time>2010-01-01T02:12:37Z</time>
      </trkpt>
      <trkpt lat="31.78658000" lon="35.02054000">
        <ele>424.00000</ele>
        <time>2010-01-01T02:12:45Z</time>
      </trkpt>
      <trkpt lat="31.78672000" lon="35.02042000">
        <ele>422.00000</ele>
        <time>2010-01-01T02:12:52Z</time>
      </trkpt>
      <trkpt lat="31.78685000" lon="35.02035000">
        <ele>422.00000</ele>
        <time>2010-01-01T02:12:58Z</time>
      </trkpt>
      <trkpt lat="31.78698000" lon="35.02031000">
        <ele>422.00000</ele>
        <time>2010-01-01T02:13:03Z</time>
      </trkpt>
      <trkpt lat="31.78705000" lon="35.02031000">
        <ele>421.00000</ele>
        <time>2010-01-01T02:13:06Z</time>
      </trkpt>
      <trkpt lat="31.78714000" lon="35.02036000">
        <ele>421.00000</ele>
        <time>2010-01-01T02:13:10Z</time>
      </trkpt>
      <trkpt lat="31.78726000" lon="35.02046000">
        <ele>421.00000</ele>
        <time>2010-01-01T02:13:16Z</time>
      </trkpt>
      <trkpt lat="31.78740000" lon="35.02062000">
        <ele>420.00000</ele>
        <time>2010-01-01T02:13:23Z</time>
      </trkpt>
      <trkpt lat="31.78751000" lon="35.02071000">
        <ele>420.00000</ele>
        <time>2010-01-01T02:13:29Z</time>
      </trkpt>
      <trkpt lat="31.78766000" lon="35.02080000">
        <ele>419.00000</ele>
        <time>2010-01-01T02:13:36Z</time>
      </trkpt>
      <trkpt lat="31.78786000" lon="35.02088000">
        <ele>418.00000</ele>
        <time>2010-01-01T02:13:44Z</time>
      </trkpt>
      <trkpt lat="31.78808000" lon="35.02093000">
        <ele>419.00000</ele>
        <time>2010-01-01T02:13:53Z</time>
      </trkpt>
      <trkpt lat="31.78830000" lon="35.02094000">
        <ele>420.00000</ele>
        <time>2010-01-01T02:14:02Z</time>
      </trkpt>
      <trkpt lat="31.78839000" lon="35.02091000">
        <ele>420.00000</ele>
        <time>2010-01-01T02:14:06Z</time>
      </trkpt>
      <trkpt lat="31.78846000" lon="35.02086000">
        <ele>420.00000</ele>
        <time>2010-01-01T02:14:09Z</time>
      </trkpt>
      <trkpt lat="31.78856000" lon="35.02076000">
        <ele>419.00000</ele>
        <time>2010-01-01T02:14:14Z</time>
      </trkpt>
      <trkpt lat="31.78865000" lon="35.02053000">
        <ele>415.00000</ele>
        <time>2010-01-01T02:14:23Z</time>
      </trkpt>
      <trkpt lat="31.78874000" lon="35.02006000">
        <ele>409.00000</ele>
        <time>2010-01-01T02:14:39Z</time>
      </trkpt>
      <trkpt lat="31.78883000" lon="35.01981000">
        <ele>406.00000</ele>
        <time>2010-01-01T02:14:48Z</time>
      </trkpt>
      <trkpt lat="31.78891000" lon="35.01969000">
        <ele>405.00000</ele>
        <time>2010-01-01T02:14:54Z</time>
      </trkpt>
      <trkpt lat="31.78897000" lon="35.01964000">
        <ele>404.00000</ele>
        <time>2010-01-01T02:14:56Z</time>
      </trkpt>
      <trkpt lat="31.78910000" lon="35.01956000">
        <ele>403.00000</ele>
        <time>2010-01-01T02:15:02Z</time>
      </trkpt>
      <trkpt lat="31.79003000" lon="35.01920000">
        <ele>397.00000</ele>
        <time>2010-01-01T02:15:42Z</time>
      </trkpt>
      <trkpt lat="31.79003000" lon="35.01921000">
        <ele>398.00000</ele>
        <time>2010-01-01T02:15:42Z</time>
      </trkpt>
      <trkpt lat="31.79018000" lon="35.01915000">
        <ele>396.00000</ele>
        <time>2010-01-01T02:15:48Z</time>
      </trkpt>
      <trkpt lat="31.79032000" lon="35.01913000">
        <ele>395.00000</ele>
        <time>2010-01-01T02:15:54Z</time>
      </trkpt>
      <trkpt lat="31.79053000" lon="35.01915000">
        <ele>392.00000</ele>
        <time>2010-01-01T02:16:02Z</time>
      </trkpt>
      <trkpt lat="31.79093000" lon="35.01929000">
        <ele>389.00000</ele>
        <time>2010-01-01T02:16:19Z</time>
      </trkpt>
      <trkpt lat="31.79109000" lon="35.01932000">
        <ele>387.00000</ele>
        <time>2010-01-01T02:16:26Z</time>
      </trkpt>
      <trkpt lat="31.79142000" lon="35.01935000">
        <ele>385.00000</ele>
        <time>2010-01-01T02:16:39Z</time>
      </trkpt>
      <trkpt lat="31.79218000" lon="35.01934000">
        <ele>381.00000</ele>
        <time>2010-01-01T02:17:09Z</time>
      </trkpt>
      <trkpt lat="31.79232000" lon="35.01929000">
        <ele>380.00000</ele>
        <time>2010-01-01T02:17:15Z</time>
      </trkpt>
      <trkpt lat="31.79254000" lon="35.01914000">
        <ele>377.00000</ele>
        <time>2010-01-01T02:17:25Z</time>
      </trkpt>
      <trkpt lat="31.79263000" lon="35.01901000">
        <ele>375.00000</ele>
        <time>2010-01-01T02:17:31Z</time>
      </trkpt>
      <trkpt lat="31.79265000" lon="35.01890000">
        <ele>375.00000</ele>
        <time>2010-01-01T02:17:35Z</time>
      </trkpt>
      <trkpt lat="31.79263000" lon="35.01878000">
        <ele>375.00000</ele>
        <time>2010-01-01T02:17:39Z</time>
      </trkpt>
      <trkpt lat="31.79244000" lon="35.01835000">
        <ele>372.00000</ele>
        <time>2010-01-01T02:17:55Z</time>
      </trkpt>
      <trkpt lat="31.79217000" lon="35.01758000">
        <ele>369.00000</ele>
        <time>2010-01-01T02:18:24Z</time>
      </trkpt>
      <trkpt lat="31.79212000" lon="35.01692000">
        <ele>362.00000</ele>
        <time>2010-01-01T02:18:46Z</time>
      </trkpt>
      <trkpt lat="31.79213000" lon="35.01642000">
        <ele>359.00000</ele>
        <time>2010-01-01T02:19:03Z</time>
      </trkpt>
      <trkpt lat="31.79219000" lon="35.01611000">
        <ele>356.00000</ele>
        <time>2010-01-01T02:19:14Z</time>
      </trkpt>
      <trkpt lat="31.79224000" lon="35.01596000">
        <ele>355.00000</ele>
        <time>2010-01-01T02:19:20Z</time>
      </trkpt>
      <trkpt lat="31.79229000" lon="35.01586000">
        <ele>354.00000</ele>
        <time>2010-01-01T02:19:24Z</time>
      </trkpt>
      <trkpt lat="31.79237000" lon="35.01575000">
        <ele>353.00000</ele>
        <time>2010-01-01T02:19:28Z</time>
      </trkpt>
      <trkpt lat="31.79246000" lon="35.01569000">
        <ele>353.00000</ele>
        <time>2010-01-01T02:19:33Z</time>
      </trkpt>
      <trkpt lat="31.79264000" lon="35.01562000">
        <ele>351.00000</ele>
        <time>2010-01-01T02:19:40Z</time>
      </trkpt>
      <trkpt lat="31.79272000" lon="35.01555000">
        <ele>350.00000</ele>
        <time>2010-01-01T02:19:44Z</time>
      </trkpt>
      <trkpt lat="31.79286000" lon="35.01540000">
        <ele>348.00000</ele>
        <time>2010-01-01T02:19:52Z</time>
      </trkpt>
      <trkpt lat="31.79289000" lon="35.01538000">
        <ele>348.00000</ele>
        <time>2010-01-01T02:19:53Z</time>
      </trkpt>
      <trkpt lat="31.79308000" lon="35.01529000">
        <ele>347.00000</ele>
        <time>2010-01-01T02:20:01Z</time>
      </trkpt>
      <trkpt lat="31.79324000" lon="35.01526000">
        <ele>345.00000</ele>
        <time>2010-01-01T02:20:08Z</time>
      </trkpt>
      <trkpt lat="31.79363000" lon="35.01540000">
        <ele>343.00000</ele>
        <time>2010-01-01T02:20:24Z</time>
      </trkpt>
      <trkpt lat="31.79398000" lon="35.01537000">
        <ele>340.00000</ele>
        <time>2010-01-01T02:20:38Z</time>
      </trkpt>
      <trkpt lat="31.79480000" lon="35.01549000">
        <ele>333.00000</ele>
        <time>2010-01-01T02:21:11Z</time>
      </trkpt>
      <trkpt lat="31.79504000" lon="35.01564000">
        <ele>332.00000</ele>
        <time>2010-01-01T02:21:22Z</time>
      </trkpt>
      <trkpt lat="31.79516000" lon="35.01575000">
        <ele>333.00000</ele>
        <time>2010-01-01T02:21:28Z</time>
      </trkpt>
      <trkpt lat="31.79523000" lon="35.01578000">
        <ele>333.00000</ele>
        <time>2010-01-01T02:21:31Z</time>
      </trkpt>
      <trkpt lat="31.79569000" lon="35.01549000">
        <ele>332.00000</ele>
        <time>2010-01-01T02:21:52Z</time>
      </trkpt>
      <trkpt lat="31.79575000" lon="35.01546000">
        <ele>332.00000</ele>
        <time>2010-01-01T02:21:55Z</time>
      </trkpt>
      <trkpt lat="31.79750000" lon="35.01516000">
        <ele>323.00000</ele>
        <time>2010-01-01T02:23:06Z</time>
      </trkpt>
      <trkpt lat="31.79751000" lon="35.01520000">
        <ele>324.00000</ele>
        <time>2010-01-01T02:23:07Z</time>
      </trkpt>
      <trkpt lat="31.79757000" lon="35.01526000">
        <ele>325.00000</ele>
        <time>2010-01-01T02:23:10Z</time>
      </trkpt>
      <trkpt lat="31.79763000" lon="35.01526000">
        <ele>325.00000</ele>
        <time>2010-01-01T02:23:13Z</time>
      </trkpt>
      <trkpt lat="31.79769000" lon="35.01522000">
        <ele>324.00000</ele>
        <time>2010-01-01T02:23:15Z</time>
      </trkpt>
      <trkpt lat="31.79771000" lon="35.01512000">
        <ele>323.00000</ele>
        <time>2010-01-01T02:23:19Z</time>
      </trkpt>
      <trkpt lat="31.79770000" lon="35.01508000">
        <ele>322.00000</ele>
        <time>2010-01-01T02:23:20Z</time>
      </trkpt>
      <trkpt lat="31.79765000" lon="35.01502000">
        <ele>321.00000</ele>
        <time>2010-01-01T02:23:23Z</time>
      </trkpt>
      <trkpt lat="31.79758000" lon="35.01501000">
        <ele>321.00000</ele>
        <time>2010-01-01T02:23:26Z</time>
      </trkpt>
      <trkpt lat="31.79756000" lon="35.01477000">
        <ele>320.00000</ele>
        <time>2010-01-01T02:23:34Z</time>
      </trkpt>
      <trkpt lat="31.79765000" lon="35.01475000">
        <ele>320.00000</ele>
        <time>2010-01-01T02:23:38Z</time>
      </trkpt>
      <trkpt lat="31.79832000" lon="35.01461000">
        <ele>315.00000</ele>
        <time>2010-01-01T02:24:05Z</time>
      </trkpt>
      <trkpt lat="31.79902000" lon="35.01448000">
        <ele>311.00000</ele>
        <time>2010-01-01T02:24:33Z</time>
      </trkpt>
      <trkpt lat="31.79937000" lon="35.01443000">
        <ele>310.00000</ele>
        <time>2010-01-01T02:24:47Z</time>
      </trkpt>
      <trkpt lat="31.79962000" lon="35.01441000">
        <ele>309.00000</ele>
        <time>2010-01-01T02:24:57Z</time>
      </trkpt>
      <trkpt lat="31.79998000" lon="35.01442000">
        <ele>306.00000</ele>
        <time>2010-01-01T02:25:12Z</time>
      </trkpt>
      <trkpt lat="31.80030000" lon="35.01447000">
        <ele>304.00000</ele>
        <time>2010-01-01T02:25:25Z</time>
      </trkpt>
      <trkpt lat="31.80066000" lon="35.01454000">
        <ele>303.00000</ele>
        <time>2010-01-01T02:25:39Z</time>
      </trkpt>
      <trkpt lat="31.80100000" lon="35.01468000">
        <ele>305.00000</ele>
        <time>2010-01-01T02:25:54Z</time>
      </trkpt>
      <trkpt lat="31.80132000" lon="35.01485000">
        <ele>305.00000</ele>
        <time>2010-01-01T02:26:08Z</time>
      </trkpt>
      <trkpt lat="31.80287000" lon="35.01595000">
        <ele>310.00000</ele>
        <time>2010-01-01T02:27:20Z</time>
      </trkpt>
      <trkpt lat="31.80350000" lon="35.01637000">
        <ele>315.00000</ele>
        <time>2010-01-01T02:27:49Z</time>
      </trkpt>
      <trkpt lat="31.80445000" lon="35.01696000">
        <ele>326.00000</ele>
        <time>2010-01-01T02:28:32Z</time>
      </trkpt>
      <trkpt lat="31.80605000" lon="35.01763000">
        <ele>318.00000</ele>
        <time>2010-01-01T02:29:40Z</time>
      </trkpt>
      <trkpt lat="31.80758000" lon="35.01823000">
        <ele>312.00000</ele>
        <time>2010-01-01T02:30:45Z</time>
      </trkpt>
      <trkpt lat="31.80788000" lon="35.01837000">
        <ele>313.00000</ele>
        <time>2010-01-01T02:30:58Z</time>
      </trkpt>
      <trkpt lat="31.80821000" lon="35.01858000">
        <ele>313.00000</ele>
        <time>2010-01-01T02:31:13Z</time>
      </trkpt>
      <trkpt lat="31.80825000" lon="35.01866000">
        <ele>314.00000</ele>
        <time>2010-01-01T02:31:16Z</time>
      </trkpt>
      <trkpt lat="31.80829000" lon="35.01889000">
        <ele>317.00000</ele>
        <time>2010-01-01T02:31:24Z</time>
      </trkpt>
      <trkpt lat="31.80832000" lon="35.01899000">
        <ele>317.00000</ele>
        <time>2010-01-01T02:31:28Z</time>
      </trkpt>
      <trkpt lat="31.80839000" lon="35.01909000">
        <ele>317.00000</ele>
        <time>2010-01-01T02:31:32Z</time>
      </trkpt>
      <trkpt lat="31.80915000" lon="35.01950000">
        <ele>313.00000</ele>
        <time>2010-01-01T02:32:05Z</time>
      </trkpt>
      <trkpt lat="31.80914000" lon="35.01950000">
        <ele>313.00000</ele>
        <time>2010-01-01T02:32:06Z</time>
      </trkpt>
      <trkpt lat="31.80924000" lon="35.01955000">
        <ele>312.00000</ele>
        <time>2010-01-01T02:32:10Z</time>
      </trkpt>
      <trkpt lat="31.80920000" lon="35.01982000">
        <ele>314.00000</ele>
        <time>2010-01-01T02:32:20Z</time>
      </trkpt>
      <trkpt lat="31.80921000" lon="35.01999000">
        <ele>316.00000</ele>
        <time>2010-01-01T02:32:25Z</time>
      </trkpt>
      <trkpt lat="31.80939000" lon="35.02006000">
        <ele>314.00000</ele>
        <time>2010-01-01T02:32:33Z</time>
      </trkpt>
    </trkseg>
  </trk>
</gpx>

